Flight Track Log - Related Links

Times and Time Zones

All times are in EDT time to prevent confusion due to time zone crossing. See the DAL268 flight status page for this flight to view local times or setup timezone preferences in your user account.

Time Position Orientation Groundspeed Altitude Reporting Facility
EDT Latitude Longitude Course Direction KTS MPH feet Rate Location/Type
Tue 12:15:27 AM 40.6430 -73.7690 90° East 90 104  Level FlightAware ADS-B
Tue 12:15:47 AM 40.6330 -73.7770 211° Southwest 155 178 955 Level FlightAware ADS-B
Tue 12:16:11 AM 40.6160 -73.7910 212° Southwest 179 206 700 1,756 Climbing FlightAware ADS-B
Tue 12:16:28 AM 40.6040 -73.8000 210° Southwest 182 209 1,200 1,833 Climbing FlightAware ADS-B
Tue 12:16:47 AM 40.5890 -73.8110 209° Southwest 191 220 1,800 1,231 Climbing FlightAware ADS-B
Tue 12:17:07 AM 40.5710 -73.8210 203° Southwest 223 257 2,000 667 Climbing FlightAware ADS-B
Tue 12:17:23 AM 40.5550 -73.8230 185° South 243 280 2,200 933 Climbing FlightAware ADS-B
Tue 12:17:52 AM 40.5220 -73.8160 171° South 267 307 2,700 1,050 Climbing FlightAware ADS-B
Tue 12:18:03 AM 40.5100 -73.8080 153° Southeast 279 321 2,900 1,000 Climbing FlightAware ADS-B
Tue 12:18:16 AM 40.4960 -73.7940 143° Southeast 293 337 3,100 1,412 Climbing FlightAware ADS-B
Tue 12:18:37 AM 40.4790 -73.7640 127° Southeast 303 349 3,700 1,862 Climbing FlightAware ADS-B
Tue 12:18:45 AM 40.4740 -73.7500 115° Southeast 307 353 4,000 1,875 Climbing FlightAware ADS-B
Tue 12:18:53 AM 40.4700 -73.7360 111° Southeast 309 356 4,200 1,875 Climbing FlightAware ADS-B
Tue 12:19:01 AM 40.4680 -73.7210 100° East 311 358 4,500 2,000 Climbing FlightAware ADS-B
Tue 12:19:29 AM 40.4790 -73.6670 75° East 311 358 5,400 2,000 Climbing FlightAware ADS-B
Tue 12:19:37 AM 40.4860 -73.6560 50° Northeast 307 353 5,700 2,500 Climbing FlightAware ADS-B
Tue 12:19:41 AM 40.4910 -73.6510 37° Northeast 305 351 5,900 2,400 Climbing FlightAware ADS-B
Tue 12:19:47 AM 40.4980 -73.6440 37° Northeast 305 351 6,100 2,250 Climbing FlightAware ADS-B
Tue 12:20:05 AM 40.5200 -73.6280 29° Northeast 305 351 6,800 2,270 Climbing FlightAware ADS-B
Tue 12:20:24 AM 40.5430 -73.6120 28° Northeast 308 354 7,500 2,129 Climbing FlightAware ADS-B
Tue 12:20:36 AM 40.5580 -73.6010 29° Northeast 311 358 7,900 1,946 Climbing FlightAware ADS-B
Tue 12:21:01 AM 40.5910 -73.5810 25° Northeast 315 362 8,700 1,946 Climbing FlightAware ADS-B
Tue 12:21:13 AM 40.6080 -73.5720 22° Northeast 316 364 9,100 1,818 Climbing FlightAware ADS-B
Tue 12:21:34 AM 40.6360 -73.5570 22° Northeast 322 371 9,700 1,655 Climbing FlightAware ADS-B
Tue 12:22:11 AM 40.6890 -73.5280 23° Northeast 337 388 10,700 1,391 Climbing FlightAware ADS-B
Tue 12:22:43 AM 40.7350 -73.5010 24° Northeast 359 413 11,300 1,059 Climbing FlightAware ADS-B
Tue 12:23:19 AM 40.7940 -73.4680 23° Northeast 386 444 11,900 1,151 Climbing FlightAware ADS-B
Tue 12:23:56 AM 40.8540 -73.4350 23° Northeast 409 471 12,700 1,565 Climbing FlightAware ADS-B
Tue 12:24:28 AM 40.9120 -73.4030 23° Northeast 418 481 13,700 1,941 Climbing FlightAware ADS-B
Tue 12:25:04 AM 40.9770 -73.3660 23° Northeast 427 491 14,900 1,944 Climbing FlightAware ADS-B
Tue 12:25:39 AM 41.0440 -73.3290 23° Northeast 437 503 16,000 1,859 Climbing FlightAware ADS-B
Tue 12:26:15 AM 41.1100 -73.2920 23° Northeast 447 514 17,100 1,739 Climbing FlightAware ADS-B
Tue 12:26:48 AM 41.1730 -73.2570 23° Northeast 455 524 18,000 1,629 Climbing FlightAware ADS-B
Tue 12:27:25 AM 41.2450 -73.2160 23° Northeast 463 533 19,000 1,583 Climbing FlightAware ADS-B
Tue 12:28:00 AM 41.3130 -73.1770 23° Northeast 469 540 19,900 1,393 Climbing FlightAware ADS-B
Tue 12:28:21 AM 41.3560 -73.1490 26° Northeast 482 555 20,300 1,263 Climbing FlightAware ADS-B
Tue 12:28:57 AM 41.4210 -73.0800 39° Northeast 493 567 21,100 1,343 Climbing FlightAware ADS-B
Tue 12:29:28 AM 41.4720 -73.0130 45° Northeast 499 574 21,800 1,522 Climbing FlightAware ADS-B
Tue 12:30:04 AM 41.5300 -72.9320 46° Northeast 505 581 22,800 1,521 Climbing FlightAware ADS-B
Tue 12:30:39 AM 41.5860 -72.8530 47° Northeast 512 589 23,600 1,268 Climbing FlightAware ADS-B
Tue 12:31:15 AM 41.6470 -72.7670 46° Northeast 519 597 24,300 1,164 Climbing FlightAware ADS-B
Tue 12:31:46 AM 41.6960 -72.6960 47° Northeast 522 601 24,900 1,130 Climbing FlightAware ADS-B
Tue 12:32:24 AM 41.7560 -72.6100 47° Northeast 530 610 25,600 1,114 Climbing FlightAware ADS-B
Tue 12:32:56 AM 41.8130 -72.5280 47° Northeast 535 616 26,200 1,114 Climbing FlightAware ADS-B
Tue 12:33:34 AM 41.8790 -72.4330 47° Northeast 539 620 26,900 1,068 Climbing FlightAware ADS-B
Tue 12:34:09 AM 41.9390 -72.3470 47° Northeast 544 626 27,500 943 Climbing FlightAware ADS-B
Tue 12:34:44 AM 41.9980 -72.2620 47° Northeast 550 633 28,000 857 Climbing FlightAware ADS-B
Tue 12:35:19 AM 42.0550 -72.1790 47° Northeast 550 633 28,500 1,114 Climbing FlightAware ADS-B
Tue 12:35:54 AM 42.1190 -72.0870 47° Northeast 550 633 29,300 1,371 Climbing FlightAware ADS-B
Tue 12:36:29 AM 42.1800 -71.9980 47° Northeast 552 635 30,100 1,371 Climbing FlightAware ADS-B
Tue 12:37:04 AM 42.2410 -71.9070 48° Northeast 547 629 30,900 771 Climbing FlightAware ADS-B
Tue 12:37:39 AM 42.2990 -71.8210 48° Northeast 550 633 31,000 86 Climbing FlightAware ADS-B
Tue 12:38:14 AM 42.3610 -71.7300 47° Northeast 548 631 31,000  Level FlightAware ADS-B
Tue 12:38:49 AM 42.4200 -71.6440 47° Northeast 548 631 31,000  Level FlightAware ADS-B
Tue 12:39:24 AM 42.4800 -71.5550 48° Northeast 548 631 31,000  Level FlightAware ADS-B
Tue 12:39:59 AM 42.5390 -71.4660 48° Northeast 548 631 31,000  Level FlightAware ADS-B
Tue 12:40:34 AM 42.6010 -71.3710 48° Northeast 549 632 31,000  Level FlightAware ADS-B
Tue 12:41:09 AM 42.6590 -71.2840 48° Northeast 551 634 31,000  Level FlightAware ADS-B
Tue 12:41:44 AM 42.7170 -71.1960 48° Northeast 552 635 31,000  Level FlightAware ADS-B
Tue 12:42:19 AM 42.7800 -71.1000 48° Northeast 554 638 31,000  Level FlightAware ADS-B
Tue 12:42:54 AM 42.8390 -71.0120 48° Northeast 553 636 31,000  Level FlightAware ADS-B
Tue 12:43:30 AM 42.8990 -70.9210 48° Northeast 553 636 31,000  Level FlightAware ADS-B
Tue 12:44:04 AM 42.9570 -70.8330 48° Northeast 553 636 31,000  Level FlightAware ADS-B
Tue 12:44:40 AM 43.0170 -70.7390 49° Northeast 554 638 31,000  Level FlightAware ADS-B
Tue 12:45:15 AM 43.0730 -70.6520 49° Northeast 554 638 31,000  Level FlightAware ADS-B
Tue 12:45:46 AM 43.1320 -70.5630 48° Northeast 553 636 31,000  Level FlightAware ADS-B
Tue 12:46:27 AM 43.1990 -70.4590 49° Northeast 547 629 31,000  Level FlightAware ADS-B
Tue 12:47:07 AM 43.2690 -70.3480 49° Northeast 545 627 31,000  Level FlightAware ADS-B
Tue 12:47:42 AM 43.3230 -70.2650 48° Northeast 545 627 31,000  Level FlightAware ADS-B
Tue 12:48:27 AM 43.4020 -70.1410 49° Northeast 545 627 31,000  Level FlightAware ADS-B
Tue 12:49:05 AM 43.4560 -70.0570 48° Northeast 545 627 31,000  Level FlightAware ADS-B
Tue 12:49:41 AM 43.5060 -69.9760 50° Northeast 545 627 31,000  Level FlightAware ADS-B
Tue 12:50:17 AM 43.5570 -69.8960 49° Northeast 545 627 31,000  Level FlightAware ADS-B
Tue 12:50:53 AM 43.6080 -69.8160 49° Northeast 545 627 31,000  Level FlightAware ADS-B
Tue 12:51:29 AM 43.6580 -69.7350 50° Northeast 545 627 31,000  Level FlightAware ADS-B
Tue 12:52:05 AM 43.7090 -69.6550 49° Northeast 545 627 31,000  Level FlightAware ADS-B
Tue 12:52:41 AM 43.7590 -69.5740 49° Northeast 545 627 31,000  Level FlightAware ADS-B
Tue 12:53:17 AM 43.8100 -69.4930 49° Northeast 545 627 31,000  Level FlightAware ADS-B
Tue 12:53:53 AM 43.8610 -69.4130 49° Northeast 545 627 31,000  Level FlightAware ADS-B
Tue 12:54:29 AM 43.9110 -69.3320 49° Northeast 545 627 31,000  Level FlightAware ADS-B
Tue 12:55:09 AM 44.0660 -69.0820 49° Northeast 544 626 31,000  Level FlightAware ADS-B
Tue 12:55:41 AM 44.1210 -68.9910 50° Northeast 544 626 31,000  Level FlightAware ADS-B
Tue 12:56:17 AM 44.1780 -68.9000 49° Northeast 544 626 31,000  Level FlightAware ADS-B
Tue 12:56:56 AM 44.2420 -68.7940 50° Northeast 544 626 31,000  Level FlightAware ADS-B
Tue 12:57:27 AM 44.2940 -68.7080 50° Northeast 543 625 31,000  Level FlightAware ADS-B
Tue 12:58:04 AM 44.3500 -68.6140 50° Northeast 543 625 31,000  Level FlightAware ADS-B
Tue 12:58:40 AM 44.4100 -68.5180 49° Northeast 541 623 31,000  Level FlightAware ADS-B
Tue 12:59:17 AM 44.4710 -68.4130 51° Northeast 540 621 31,000  Level FlightAware ADS-B
Tue 12:59:49 AM 44.5220 -68.3280 50° Northeast 537 618 31,000  Level FlightAware ADS-B
Tue 01:00:27 AM 44.5830 -68.2270 50° Northeast 533 613 31,000  Level FlightAware ADS-B
Tue 01:00:58 AM 44.6310 -68.1470 50° Northeast 534 615 31,000  Level FlightAware ADS-B
Tue 01:01:33 AM 44.6880 -68.0510 50° Northeast 535 616 31,000  Level FlightAware ADS-B
Tue 01:02:09 AM 44.7440 -67.9550 51° Northeast 536 617 31,000  Level FlightAware ADS-B
Tue 01:02:45 AM 44.8010 -67.8570 51° Northeast 539 620 31,000  Level FlightAware ADS-B
Tue 01:03:21 AM 44.8570 -67.7590 51° Northeast 541 623 31,000  Level FlightAware ADS-B
Tue 01:03:51 AM 44.9040 -67.6810 50° Northeast 534 615 31,000  Level FlightAware ADS-B
Tue 01:04:26 AM 44.9600 -67.5870 50° Northeast 532 612 31,000  Level FlightAware ADS-B
Tue 01:05:01 AM 45.0160 -67.4960 49° Northeast 537 618 31,000  Level FlightAware ADS-B
Tue 01:05:36 AM 45.0710 -67.3980 52° Northeast 539 620 31,000  Level FlightAware ADS-B
Tue 01:06:11 AM 45.1260 -67.3050 50° Northeast 540 621 31,000  Level FlightAware ADS-B
Tue 01:06:46 AM 45.1820 -67.2060 51° Northeast 540 621 31,000  Level FlightAware ADS-B
Tue 01:07:26 AM 45.2440 -67.0990 51° Northeast 541 623 31,000  Level FlightAware ADS-B
Tue 01:07:56 AM 45.2920 -67.0160 51° Northeast 541 623 31,000  Level FlightAware ADS-B
Tue 01:08:31 AM 45.3460 -66.9190 52° Northeast 540 621 31,000  Level FlightAware ADS-B
Tue 01:09:11 AM 45.4100 -66.8060 51° Northeast 541 623 31,000  Level FlightAware ADS-B
Tue 01:09:41 AM 45.4560 -66.7250 51° Northeast 542 624 31,000  Level FlightAware ADS-B
Tue 01:10:16 AM 45.5140 -66.6220 51° Northeast 544 626 31,000  Level FlightAware ADS-B
Tue 01:10:56 AM 45.5740 -66.5150 51° Northeast 546 628 31,000  Level FlightAware ADS-B
Tue 01:11:26 AM 45.6220 -66.4280 52° Northeast 547 629 31,000  Level FlightAware ADS-B
Tue 01:12:16 AM 45.7020 -66.2870 51° Northeast 548 631 31,000  Level FlightAware ADS-B
Tue 01:12:47 AM 45.7490 -66.2020 52° Northeast 546 628 31,000  Level FlightAware ADS-B
Tue 01:13:26 AM 45.8110 -66.0890 52° Northeast 543 625 31,000  Level FlightAware ADS-B
Tue 01:14:02 AM 45.8660 -65.9900 51° Northeast 542 624 31,000  Level FlightAware ADS-B
Tue 01:14:31 AM 45.9120 -65.9060 52° Northeast 541 623 31,000  Level FlightAware ADS-B
Tue 01:15:28 AM 45.9900 -65.7650 51° Northeast 536 617 31,000  Level FlightAware ADS-B
Tue 01:16:05 AM 46.0380 -65.6760 52° Northeast 536 617 31,000  Level FlightAware ADS-B
Tue 01:16:41 AM 46.0850 -65.5900 52° Northeast 536 617 31,000  Level FlightAware ADS-B
Tue 01:17:25 AM 46.1750 -65.4250 52° Northeast 542 624 31,000  Level FlightAware ADS-B
Tue 01:18:02 AM 46.2250 -65.3370 51° Northeast 542 624 31,000  Level FlightAware ADS-B
Tue 01:18:38 AM 46.2730 -65.2500 51° Northeast 542 624 31,000  Level FlightAware ADS-B
Tue 01:19:14 AM 46.3220 -65.1640 50° Northeast 542 624 31,000  Level FlightAware ADS-B
Tue 01:19:50 AM 46.3700 -65.0780 51° Northeast 542 624 31,000  Level FlightAware ADS-B
Tue 01:20:26 AM 46.4180 -64.9910 51° Northeast 542 624 31,000  Level FlightAware ADS-B
Tue 01:21:02 AM 46.4660 -64.9050 51° Northeast 542 624 31,000  Level FlightAware ADS-B
Tue 01:21:38 AM 46.5150 -64.8180 51° Northeast 542 624 31,000  Level FlightAware ADS-B
Tue 01:22:15 AM 46.5640 -64.7290 51° Northeast 542 624 31,000  Level FlightAware ADS-B
Tue 01:22:52 AM 46.6140 -64.6400 51° Northeast 542 624 31,000  Level FlightAware ADS-B
Tue 01:23:28 AM 46.6620 -64.5530 51° Northeast 542 624 31,000  Level FlightAware ADS-B
Tue 01:24:04 AM 46.7100 -64.4660 51° Northeast 542 624 31,000  Level FlightAware ADS-B
Tue 01:24:40 AM 46.7590 -64.3790 51° Northeast 542 624 31,000  Level FlightAware ADS-B
Tue 01:25:16 AM 46.8070 -64.2920 51° Northeast 542 624 31,000  Level FlightAware ADS-B
Tue 01:25:52 AM 46.8550 -64.2050 51° Northeast 542 624 31,000  Level FlightAware ADS-B
Tue 01:26:28 AM 46.9040 -64.1170 51° Northeast 542 624 31,000  Level FlightAware ADS-B
Tue 01:27:10 AM 47.0667 -63.7167 51° Northeast 540 621 31,000  Level Moncton Center
Tue 01:28:10 AM 47.1500 -63.5333 56° Northeast 540 621 31,000  Level Moncton Center
Tue 01:29:10 AM 47.2333 -63.3667 54° Northeast 530 610 31,000  Level Moncton Center
Tue 01:30:10 AM 47.3333 -63.1833 51° Northeast 530 610 31,000  Level Moncton Center
Tue 01:31:10 AM 47.4000 -62.9833 64° Northeast 530 610 31,000  Level Moncton Center
Tue 01:32:10 AM 47.4833 -62.8167 53° Northeast 530 610 31,000  Level Moncton Center
Tue 01:33:10 AM 47.5667 -62.6667 50° Northeast 530 610 31,000  Level Moncton Center
Tue 01:34:10 AM 47.6667 -62.4500 56° Northeast 530 610 31,000  Level Moncton Center
Tue 01:35:10 AM 47.7500 -62.2833 53° Northeast 530 610 31,000  Level Moncton Center
Tue 01:36:10 AM 47.8500 -62.1000 51° Northeast 530 610 31,000  Level Moncton Center
Tue 01:37:10 AM 47.9167 -61.9167 61° Northeast 540 621 31,000  Level Moncton Center
Tue 01:38:10 AM 48.0167 -61.7500 48° Northeast 540 621 31,000  Level Moncton Center
Tue 01:39:10 AM 48.1000 -61.5667 56° Northeast 540 621 31,000  Level Moncton Center
Tue 01:40:10 AM 48.1833 -61.3667 58° Northeast 540 621 31,000  Level Moncton Center
Tue 01:41:10 AM 48.2667 -61.2000 53° Northeast 540 621 31,000  Level Moncton Center
Tue 01:42:10 AM 48.3500 -61.0000 58° Northeast 540 621 31,000  Level Moncton Center
Tue 01:43:10 AM 48.4500 -60.8167 51° Northeast 540 621 31,000  Level Moncton Center
Tue 01:48:19 AM 48.8910 -59.8690 51° Northeast 538 619 31,000  Level FlightAware ADS-B
Tue 01:49:00 AM 48.9400 -59.7600 56° Northeast 538 619 31,000  Level FlightAware ADS-B
Tue 01:49:36 AM 48.9820 -59.6640 56° Northeast 538 619 31,000  Level FlightAware ADS-B
Tue 01:50:10 AM 49.0390 -59.5300 57° Northeast 537 618 31,000  Level FlightAware ADS-B
Tue 01:50:45 AM 49.0850 -59.4260 56° Northeast 536 617 31,000  Level FlightAware ADS-B
Tue 01:51:19 AM 49.1380 -59.3030 57° Northeast 537 618 31,000  Level FlightAware ADS-B
Tue 01:51:55 AM 49.1850 -59.1920 57° Northeast 536 617 31,000  Level FlightAware ADS-B
Tue 01:52:30 AM 49.2330 -59.0810 56° Northeast 536 617 31,000  Level FlightAware ADS-B
Tue 01:53:04 AM 49.2810 -58.9700 56° Northeast 535 616 31,000  Level FlightAware ADS-B
Tue 01:53:39 AM 49.3290 -58.8560 57° Northeast 535 616 31,000  Level FlightAware ADS-B
Tue 01:54:15 AM 49.3740 -58.7480 57° Northeast 535 616 31,000  Level FlightAware ADS-B
Tue 01:54:50 AM 49.4220 -58.6330 57° Northeast 534 615 31,000  Level FlightAware ADS-B
Tue 01:55:25 AM 49.4680 -58.5200 58° Northeast 535 616 31,000  Level FlightAware ADS-B
Tue 01:56:00 AM 49.5120 -58.4050 59° Northeast 536 617 31,000  Level FlightAware ADS-B
Tue 01:56:35 AM 49.5500 -58.2980 61° Northeast 537 618 31,000 86 Level FlightAware ADS-B
Tue 01:57:10 AM 49.5940 -58.1700 62° Northeast 538 619 31,100 257 Climbing FlightAware ADS-B
Tue 01:57:45 AM 49.6340 -58.0540 62° Northeast 545 627 31,300 343 Climbing FlightAware ADS-B
Tue 01:58:20 AM 49.6770 -57.9290 62° Northeast 549 632 31,500 429 Climbing FlightAware ADS-B
Tue 01:58:55 AM 49.7190 -57.8080 62° Northeast 552 635 31,800 429 Climbing FlightAware ADS-B
Tue 01:59:30 AM 49.7590 -57.6860 63° Northeast 552 635 32,000 343 Climbing FlightAware ADS-B
Tue 02:00:05 AM 49.8010 -57.5630 62° Northeast 552 635 32,200 343 Climbing FlightAware ADS-B
Tue 02:00:40 AM 49.8420 -57.4410 62° Northeast 552 635 32,400 343 Climbing FlightAware ADS-B
Tue 02:01:15 AM 49.8820 -57.3220 62° Northeast 550 633 32,600 429 Climbing FlightAware ADS-B
Tue 02:01:50 AM 49.9230 -57.2000 62° Northeast 549 632 32,900 343 Climbing FlightAware ADS-B
Tue 02:02:25 AM 49.9650 -57.0730 63° Northeast 554 638 33,000 86 Climbing FlightAware ADS-B
Tue 02:03:00 AM 50.0060 -56.9500 63° Northeast 553 636 33,000  Level FlightAware ADS-B
Tue 02:03:34 AM 50.0470 -56.8260 63° Northeast 553 636 33,000  Level FlightAware ADS-B
Tue 02:04:10 AM 50.0870 -56.7020 63° Northeast 552 635 33,000  Level FlightAware ADS-B
Tue 02:04:44 AM 50.1270 -56.5780 63° Northeast 552 635 33,000  Level FlightAware ADS-B
Tue 02:05:19 AM 50.1690 -56.4540 62° Northeast 553 636 33,000  Level FlightAware ADS-B
Tue 02:05:55 AM 50.2090 -56.3290 63° Northeast 554 638 33,000  Level FlightAware ADS-B
Tue 02:06:30 AM 50.2470 -56.2110 63° Northeast 555 639 33,000  Level FlightAware ADS-B
Tue 02:07:05 AM 50.2860 -56.0860 64° Northeast 554 638 33,000  Level FlightAware ADS-B
Tue 02:07:40 AM 50.3290 -55.9530 63° Northeast 554 638 33,000  Level FlightAware ADS-B
Tue 02:08:15 AM 50.3680 -55.8310 63° Northeast 555 639 33,000  Level FlightAware ADS-B
Tue 02:08:49 AM 50.4080 -55.7010 64° Northeast 553 636 33,000  Level FlightAware ADS-B
Tue 02:09:25 AM 50.4470 -55.5790 63° Northeast 553 636 33,000  Level FlightAware ADS-B
Tue 02:10:00 AM 50.4870 -55.4490 64° Northeast 553 636 33,000  Level FlightAware ADS-B
Tue 02:10:35 AM 50.5260 -55.3230 64° Northeast 554 638 33,000  Level FlightAware ADS-B
Tue 02:11:10 AM 50.5660 -55.1960 64° Northeast 555 639 33,000  Level FlightAware ADS-B
Tue 02:11:53 AM 50.6040 -55.0730 64° Northeast 554 638 33,000  Level FlightAware ADS-B
Tue 02:12:30 AM 50.6530 -54.9090 65° Northeast 553 636 33,000  Level FlightAware ADS-B
Tue 02:13:05 AM 50.6930 -54.7790 64° Northeast 551 634 33,000  Level FlightAware ADS-B
Tue 02:13:51 AM 50.7370 -54.6340 64° Northeast 551 634 33,000  Level FlightAware ADS-B
Tue 02:14:35 AM 50.7830 -54.4770 65° Northeast 549 632 33,000  Level FlightAware ADS-B
Tue 02:15:09 AM 50.8260 -54.3330 65° Northeast 548 631 33,000  Level FlightAware ADS-B
Tue 02:15:47 AM 50.8620 -54.2160 64° Northeast 548 631 33,000  Level FlightAware ADS-B
Tue 02:16:23 AM 50.8960 -54.1060 64° Northeast 548 631 33,000  Level FlightAware ADS-B
Tue 02:16:59 AM 50.9300 -53.9950 64° Northeast 548 631 33,000  Level FlightAware ADS-B
Tue 02:17:35 AM 50.9640 -53.8840 64° Northeast 548 631 33,000  Level FlightAware ADS-B
Tue 02:17:58 AM 51.0040 -53.7250 68° East 33,000  Level FlightAware ADS-B
Tue 02:18:43 AM 51.0500 -53.5000 68° East 550 633 33,000  Level Gander Center
Tue 02:19:17 AM 51.0667 -53.4000 75° East 550 633 33,000  Level Gander Center
Tue 02:20:10 AM 51.1333 -53.1667 65° Northeast 540 621 33,000  Level Moncton Center
Tue 02:21:10 AM 51.1833 -52.9333 71° East 550 633 33,000  Level Moncton Center
Tue 02:22:10 AM 51.2333 -52.7333 68° East 540 621 33,000  Level Moncton Center
Tue 02:23:10 AM 51.3167 -52.5000 60° Northeast 550 633 33,000  Level Moncton Center
Tue 02:24:10 AM 51.3500 -52.3000 75° East 550 633 33,000  Level Moncton Center
Tue 02:25:10 AM 51.4333 -52.0333 63° Northeast 550 633 33,000  Level Moncton Center
Tue 02:26:10 AM 51.4833 -51.8667 64° Northeast 550 633 33,000  Level Moncton Center
Tue 02:27:17 AM 51.5667 -51.5833 65° Northeast 560 644 33,000  Level Gander Center
Tue 02:28:17 AM 51.6167 -51.3500 71° East 560 644 33,000  Level Gander Center
Tue 02:29:17 AM 51.6667 -51.1167 71° East 560 644 33,000  Level Gander Center
Tue 02:30:17 AM 51.7333 -50.8833 65° Northeast 560 644 33,000  Level Gander Center
Tue 02:31:17 AM 51.8000 -50.6500 65° Northeast 560 644 33,000  Level Gander Center
Tue 02:32:17 AM 51.8667 -50.4167 65° Northeast 560 644 33,000  Level Gander Center
Tue 02:34:00 AM 51.9524 -50.1495 62° Northeast  Level FlightAware Approximate
Tue 02:41:00 AM 52.1985 -48.5535 77° East  Level FlightAware Approximate
Tue 02:42:00 AM 52.2285 -48.3223 78° East  Level FlightAware Approximate
Tue 02:43:00 AM 52.2579 -48.0908 78° East  Level FlightAware Approximate
Tue 02:44:00 AM 52.2869 -47.8590 78° East  Level FlightAware Approximate
Tue 02:45:00 AM 52.3155 -47.6269 79° East  Level FlightAware Approximate
Tue 02:46:00 AM 52.3436 -47.3945 79° East  Level FlightAware Approximate
Tue 02:47:00 AM 52.3713 -47.1618 79° East  Level FlightAware Approximate
Tue 02:48:00 AM 52.3985 -46.9288 79° East  Level FlightAware Approximate
Tue 02:49:00 AM 52.4252 -46.6956 79° East  Level FlightAware Approximate
Tue 02:50:00 AM 52.4515 -46.4620 79° East  Level FlightAware Approximate
Tue 02:51:00 AM 52.4773 -46.2282 80° East  Level FlightAware Approximate
Tue 02:52:00 AM 52.5027 -45.9941 80° East  Level FlightAware Approximate
Tue 02:53:00 AM 52.5276 -45.7598 80° East  Level FlightAware Approximate
Tue 02:54:00 AM 52.5520 -45.5252 80° East  Level FlightAware Approximate
Tue 02:55:00 AM 52.5760 -45.2903 80° East  Level FlightAware Approximate
Tue 02:56:00 AM 52.5995 -45.0551 81° East  Level FlightAware Approximate
Tue 02:57:00 AM 52.6231 -44.8199 81° East  Level FlightAware Approximate
Tue 02:58:00 AM 52.6462 -44.5844 81° East  Level FlightAware Approximate
Tue 02:59:00 AM 52.6689 -44.3487 81° East  Level FlightAware Approximate
Tue 03:00:00 AM 52.6911 -44.1127 81° East  Level FlightAware Approximate
Tue 03:01:00 AM 52.7128 -43.8765 81° East  Level FlightAware Approximate
Tue 03:02:00 AM 52.7341 -43.6400 81° East  Level FlightAware Approximate
Tue 03:03:00 AM 52.7549 -43.4034 82° East  Level FlightAware Approximate
Tue 03:04:00 AM 52.7752 -43.1665 82° East  Level FlightAware Approximate
Tue 03:05:00 AM 52.7950 -42.9293 82° East  Level FlightAware Approximate
Tue 03:06:00 AM 52.8144 -42.6920 82° East  Level FlightAware Approximate
Tue 03:07:00 AM 52.8333 -42.4545 82° East  Level FlightAware Approximate
Tue 03:08:00 AM 52.8517 -42.2167 83° East  Level FlightAware Approximate
Tue 03:09:00 AM 52.8697 -41.9788 83° East  Level FlightAware Approximate
Tue 03:10:00 AM 52.8871 -41.7406 83° East  Level FlightAware Approximate
Tue 03:11:00 AM 52.9041 -41.5023 83° East  Level FlightAware Approximate
Tue 03:12:00 AM 52.9206 -41.2638 83° East  Level FlightAware Approximate
Tue 03:13:00 AM 52.9367 -41.0251 84° East  Level FlightAware Approximate
Tue 03:14:00 AM 52.9522 -40.7862 84° East  Level FlightAware Approximate
Tue 03:15:00 AM 52.9673 -40.5472 84° East  Level FlightAware Approximate
Tue 03:16:00 AM 52.9819 -40.3080 84° East  Level FlightAware Approximate
Tue 03:17:00 AM 52.9960 -40.0686 84° East  Level FlightAware Approximate
Tue 03:18:00 AM 53.0241 -39.8331 76° East  Level FlightAware Approximate
Tue 03:19:00 AM 53.0575 -39.5984 77° East  Level FlightAware Approximate
Tue 03:20:00 AM 53.0904 -39.3633 77° East  Level FlightAware Approximate
Tue 03:21:00 AM 53.1229 -39.1278 77° East  Level FlightAware Approximate
Tue 03:22:00 AM 53.1549 -38.8920 77° East  Level FlightAware Approximate
Tue 03:23:00 AM 53.1864 -38.6559 77° East  Level FlightAware Approximate
Tue 03:24:00 AM 53.2175 -38.4194 78° East  Level FlightAware Approximate
Tue 03:25:00 AM 53.2481 -38.1825 78° East  Level FlightAware Approximate
Tue 03:26:00 AM 53.2783 -37.9454 78° East  Level FlightAware Approximate
Tue 03:27:00 AM 53.3079 -37.7079 78° East  Level FlightAware Approximate
Tue 03:28:00 AM 53.3371 -37.4700 78° East  Level FlightAware Approximate
Tue 03:29:00 AM 53.3658 -37.2319 78° East  Level FlightAware Approximate
Tue 03:30:00 AM 53.3941 -36.9934 79° East  Level FlightAware Approximate
Tue 03:31:00 AM 53.4218 -36.7546 79° East  Level FlightAware Approximate
Tue 03:32:00 AM 53.4491 -36.5155 79° East  Level FlightAware Approximate
Tue 03:33:00 AM 53.4759 -36.2761 79° East  Level FlightAware Approximate
Tue 03:34:00 AM 53.5023 -36.0364 79° East  Level FlightAware Approximate
Tue 03:35:00 AM 53.5281 -35.7964 80° East  Level FlightAware Approximate
Tue 03:36:00 AM 53.5535 -35.5561 80° East  Level FlightAware Approximate
Tue 03:37:00 AM 53.5784 -35.3156 80° East  Level FlightAware Approximate
Tue 03:38:00 AM 53.6028 -35.0747 80° East  Level FlightAware Approximate
Tue 03:39:00 AM 53.6267 -34.8336 80° East  Level FlightAware Approximate
Tue 03:40:00 AM 53.6502 -34.5922 81° East  Level FlightAware Approximate
Tue 03:41:00 AM 53.6731 -34.3505 81° East  Level FlightAware Approximate
Tue 03:42:00 AM 53.6956 -34.1086 81° East  Level FlightAware Approximate
Tue 03:43:00 AM 53.7176 -33.8664 81° East  Level FlightAware Approximate
Tue 03:44:00 AM 53.7391 -33.6240 81° East  Level FlightAware Approximate
Tue 03:45:00 AM 53.7601 -33.3813 82° East  Level FlightAware Approximate
Tue 03:46:00 AM 53.7806 -33.1384 82° East  Level FlightAware Approximate
Tue 03:47:00 AM 53.8006 -32.8952 82° East  Level FlightAware Approximate
Tue 03:48:00 AM 53.8201 -32.6519 82° East  Level FlightAware Approximate
Tue 03:49:00 AM 53.8391 -32.4082 82° East  Level FlightAware Approximate
Tue 03:50:00 AM 53.8577 -32.1644 83° East  Level FlightAware Approximate
Tue 03:51:00 AM 53.8757 -31.9204 83° East  Level FlightAware Approximate
Tue 03:52:00 AM 53.8933 -31.6761 83° East  Level FlightAware Approximate
Tue 03:53:00 AM 53.9103 -31.4321 83° East  Level FlightAware Approximate
Tue 03:54:00 AM 53.9268 -31.1879 83° East  Level FlightAware Approximate
Tue 03:55:00 AM 53.9429 -30.9435 84° East  Level FlightAware Approximate
Tue 03:56:00 AM 53.9584 -30.6989 84° East  Level FlightAware Approximate
Tue 03:57:00 AM 53.9734 -30.4541 84° East  Level FlightAware Approximate
Tue 03:58:00 AM 53.9880 -30.2092 84° East  Level FlightAware Approximate
Tue 03:59:00 AM 54.0015 -29.9640 86° East  Level FlightAware Approximate
Tue 04:00:00 AM 54.0114 -29.7182 86° East  Level FlightAware Approximate
Tue 04:01:00 AM 54.0208 -29.4723 86° East  Level FlightAware Approximate
Tue 04:02:00 AM 54.0297 -29.2263 86° East  Level FlightAware Approximate
Tue 04:03:00 AM 54.0381 -28.9802 87° East  Level FlightAware Approximate
Tue 04:04:00 AM 54.0460 -28.7341 87° East  Level FlightAware Approximate
Tue 04:05:00 AM 54.0533 -28.4878 87° East  Level FlightAware Approximate
Tue 04:06:00 AM 54.0602 -28.2414 87° East  Level FlightAware Approximate
Tue 04:07:00 AM 54.0666 -27.9950 87° East  Level FlightAware Approximate
Tue 04:08:00 AM 54.0725 -27.7484 88° East  Level FlightAware Approximate
Tue 04:09:00 AM 54.0779 -27.5019 88° East  Level FlightAware Approximate
Tue 04:10:00 AM 54.0827 -27.2552 88° East  Level FlightAware Approximate
Tue 04:11:00 AM 54.0871 -27.0085 88° East  Level FlightAware Approximate
Tue 04:12:00 AM 54.0910 -26.7618 88° East  Level FlightAware Approximate
Tue 04:13:00 AM 54.0943 -26.5150 89° East  Level FlightAware Approximate
Tue 04:14:00 AM 54.0971 -26.2681 89° East  Level FlightAware Approximate
Tue 04:15:00 AM 54.0995 -26.0213 89° East  Level FlightAware Approximate
Tue 04:16:00 AM 54.1013 -25.7744 89° East  Level FlightAware Approximate
Tue 04:17:00 AM 54.1027 -25.5275 89° East  Level FlightAware Approximate
Tue 04:18:00 AM 54.1035 -25.2806 90° East  Level FlightAware Approximate
Tue 04:19:00 AM 54.1038 -25.0337 90° East  Level FlightAware Approximate
Tue 04:20:00 AM 54.1036 -24.7867 90° East  Level FlightAware Approximate
Tue 04:21:00 AM 54.1029 -24.5398 90° East  Level FlightAware Approximate
Tue 04:22:00 AM 54.1017 -24.2929 90° East  Level FlightAware Approximate
Tue 04:23:00 AM 54.1001 -24.0460 91° East  Level FlightAware Approximate
Tue 04:24:00 AM 54.0978 -23.7992 91° East  Level FlightAware Approximate
Tue 04:25:00 AM 54.0951 -23.5523 91° East  Level FlightAware Approximate
Tue 04:26:00 AM 54.0919 -23.3055 91° East  Level FlightAware Approximate
Tue 04:27:00 AM 54.0882 -23.0588 91° East  Level FlightAware Approximate
Tue 04:28:00 AM 54.0840 -22.8120 92° East  Level FlightAware Approximate
Tue 04:29:00 AM 54.0792 -22.5654 92° East  Level FlightAware Approximate
Tue 04:30:00 AM 54.0740 -22.3183 92° East  Level FlightAware Approximate
Tue 04:31:00 AM 54.0682 -22.0714 92° East  Level FlightAware Approximate
Tue 04:32:00 AM 54.0620 -21.8245 92° East  Level FlightAware Approximate
Tue 04:33:00 AM 54.0552 -21.5777 93° East  Level FlightAware Approximate
Tue 04:34:00 AM 54.0480 -21.3310 93° East  Level FlightAware Approximate
Tue 04:35:00 AM 54.0402 -21.0843 93° East  Level FlightAware Approximate
Tue 04:36:00 AM 54.0319 -20.8378 93° East  Level FlightAware Approximate
Tue 04:37:00 AM 54.0231 -20.5913 93° East  Level FlightAware Approximate
Tue 04:38:00 AM 54.0139 -20.3450 94° East  Level FlightAware Approximate
Tue 04:39:00 AM 54.0041 -20.0988 94° East  Level FlightAware Approximate
Tue 04:40:00 AM 53.9913 -19.8530 96° East  Level FlightAware Approximate
Tue 04:41:00 AM 53.9764 -19.6077 96° East  Level FlightAware Approximate
Tue 04:42:00 AM 53.9609 -19.3625 96° East  Level FlightAware Approximate
Tue 04:43:00 AM 53.9450 -19.1175 96° East  Level FlightAware Approximate
Tue 04:44:00 AM 53.9286 -18.8728 96° East  Level FlightAware Approximate
Tue 04:45:00 AM 53.9117 -18.6282 97° East  Level FlightAware Approximate
Tue 04:46:00 AM 53.8942 -18.3838 97° East  Level FlightAware Approximate
Tue 04:47:00 AM 53.8763 -18.1396 97° East  Level FlightAware Approximate
Tue 04:48:00 AM 53.8579 -17.8957 97° East  Level FlightAware Approximate
Tue 04:49:00 AM 53.8390 -17.6519 97° East  Level FlightAware Approximate
Tue 04:50:00 AM 53.8196 -17.4084 98° East  Level FlightAware Approximate
Tue 04:50:46 AM 53.8940 -14.4180 98° East 514 592 33,000  Level FlightAware ADS-B
Tue 04:51:00 AM 53.7997 -17.1651 98° East  Level FlightAware Approximate
Tue 04:51:26 AM 53.8680 -14.2500 105° East 514 592 33,000  Level FlightAware ADS-B
Tue 04:52:08 AM 53.8460 -14.1060 104° East 514 592 33,000  Level FlightAware ADS-B
Tue 04:52:46 AM 53.8180 -13.9400 106° East 514 592 33,000  Level FlightAware ADS-B
Tue 04:53:16 AM 53.7990 -13.8190 105° East 513 590 33,000  Level FlightAware ADS-B
Tue 04:53:56 AM 53.7800 -13.6870 104° East 513 590 33,000  Level FlightAware ADS-B
Tue 04:54:31 AM 53.7520 -13.5300 107° East 507 583 33,000  Level FlightAware ADS-B
Tue 04:55:06 AM 53.7310 -13.4000 105° East 505 581 33,000  Level FlightAware ADS-B
Tue 04:55:47 AM 53.7080 -13.2630 106° East 504 580 33,000  Level FlightAware ADS-B
Tue 04:56:22 AM 53.6850 -13.1230 105° East 503 579 33,000  Level FlightAware ADS-B
Tue 04:57:01 AM 53.6570 -12.9610 106° East 503 579 33,000  Level FlightAware ADS-B
Tue 04:57:36 AM 53.6360 -12.8360 106° East 502 578 33,000 212 Level FlightAware ADS-B
Tue 04:58:26 AM 53.6040 -12.6490 106° East 497 572 33,300 424 Climbing FlightAware ADS-B
Tue 04:59:01 AM 53.5810 -12.5190 107° East 494 568 33,600 514 Climbing FlightAware ADS-B
Tue 04:59:36 AM 53.5580 -12.3860 106° East 494 568 33,900 514 Climbing FlightAware ADS-B
Tue 05:00:11 AM 53.5350 -12.2560 107° East 494 568 34,200 514 Climbing FlightAware ADS-B
Tue 05:00:46 AM 53.5120 -12.1230 106° East 497 572 34,500 514 Climbing FlightAware ADS-B
Tue 05:01:21 AM 53.4890 -11.9930 107° East 500 575 34,800 423 Climbing FlightAware ADS-B
Tue 05:01:57 AM 53.4660 -11.8670 107° East 499 574 35,000 171 Climbing FlightAware ADS-B
Tue 05:02:31 AM 53.4420 -11.7340 107° East 500 575 35,000  Level FlightAware ADS-B
Tue 05:03:07 AM 53.4180 -11.6040 107° East 501 577 35,000  Level FlightAware ADS-B
Tue 05:03:41 AM 53.3940 -11.4740 107° East 501 577 35,000  Level FlightAware ADS-B
Tue 05:04:16 AM 53.3700 -11.3450 107° East 501 577 35,000  Level FlightAware ADS-B
Tue 05:04:51 AM 53.3470 -11.2150 106° East 501 577 35,000  Level FlightAware ADS-B
Tue 05:05:26 AM 53.3220 -11.0860 108° East 501 577 35,000  Level FlightAware ADS-B
Tue 05:06:01 AM 53.2980 -10.9610 108° East 498 573 35,000  Level FlightAware ADS-B
Tue 05:06:36 AM 53.2730 -10.8280 107° East 500 575 35,000  Level FlightAware ADS-B
Tue 05:07:11 AM 53.2490 -10.6990 107° East 500 575 35,000  Level FlightAware ADS-B
Tue 05:07:47 AM 53.2230 -10.5700 109° East 499 574 35,000  Level FlightAware ADS-B
Tue 05:08:21 AM 53.1990 -10.4410 107° East 498 573 35,000  Level FlightAware ADS-B
Tue 05:08:57 AM 53.1740 -10.3130 108° East 498 573 35,000  Level FlightAware ADS-B
Tue 05:09:31 AM 53.1490 -10.1850 108° East 497 572 35,000  Level FlightAware ADS-B
Tue 05:10:06 AM 53.1240 -10.0610 109° East 496 571 35,000  Level FlightAware ADS-B
Tue 05:10:41 AM 53.0990 -9.9340 108° East 495 570 35,000  Level FlightAware ADS-B
Tue 05:11:16 AM 53.0720 -9.8030 109° East 495 570 35,000  Level FlightAware ADS-B
Tue 05:11:49 AM 53.0510 -9.6940 108° East 495 570 35,000  Level FlightAware ADS-B
Tue 05:12:21 AM 53.0250 -9.5680 109° East 498 573 35,000  Level FlightAware ADS-B
Tue 05:13:01 AM 52.9960 -9.4240 108° East 497 572 35,000  Level FlightAware ADS-B
Tue 05:13:31 AM 52.9740 -9.3190 109° East 497 572 35,000  Level FlightAware ADS-B
Tue 05:14:06 AM 52.9470 -9.1890 109° East 498 573 35,000  Level FlightAware ADS-B
Tue 05:14:41 AM 52.9210 -9.0630 109° East 498 573 35,000  Level FlightAware ADS-B
Tue 05:15:16 AM 52.8950 -8.9370 109° East 498 573 35,000  Level FlightAware ADS-B
Tue 05:15:51 AM 52.8680 -8.8110 109° East 497 572 35,000  Level FlightAware ADS-B
Tue 05:16:27 AM 52.8420 -8.6900 110° East 497 572 35,000  Level FlightAware ADS-B
Tue 05:17:01 AM 52.8150 -8.5610 110° East 497 572 35,000  Level FlightAware ADS-B
Tue 05:17:02 AM 52.8131 -8.5515 110° East 490 564 35,000  Level FlightAware UK
Tue 05:17:32 AM 52.7905 -8.4436 110° East 488 562 35,000  Level FlightAware UK
Tue 05:17:41 AM 52.7850 -8.4180 110° East 495 570 35,000  Level FlightAware ADS-B
Tue 05:18:11 AM 52.7610 -8.3110 110° East 493 567 35,000  Level FlightAware ADS-B
Tue 05:18:47 AM 52.7340 -8.1870 110° East 494 568 35,000  Level FlightAware ADS-B
Tue 05:19:21 AM 52.7070 -8.0620 110° East 495 570 35,000  Level FlightAware ADS-B
Tue 05:19:57 AM 52.6800 -7.9370 110° East 496 571 35,000  Level FlightAware ADS-B
Tue 05:20:31 AM 52.6520 -7.8120 110° East 497 572 35,000  Level FlightAware ADS-B
Tue 05:20:32 AM 52.6502 -7.8010 110° East 486 559 35,000  Level FlightAware UK
Tue 05:21:02 AM 52.6263 -7.6941 110° East 488 562 35,000  Level FlightAware UK
Tue 05:21:07 AM 52.6240 -7.6880 110° East 498 573 35,000  Level FlightAware ADS-B
Tue 05:21:41 AM 52.5960 -7.5620 110° East 500 575 35,000  Level FlightAware ADS-B
Tue 05:22:17 AM 52.5670 -7.4370 111° Southeast 503 579 35,000  Level FlightAware ADS-B
Tue 05:22:51 AM 52.5390 -7.3120 110° East 504 580 35,000  Level FlightAware ADS-B
Tue 05:23:26 AM 52.5100 -7.1830 110° East 504 580 35,000  Level FlightAware ADS-B
Tue 05:24:01 AM 52.4820 -7.0610 110° East 505 581 35,000  Level FlightAware ADS-B
Tue 05:24:03 AM 52.4802 -7.0494 110° East 490 564 35,000  Level FlightAware UK
Tue 05:24:33 AM 52.4553 -6.9421 110° East 492 566 35,000  Level FlightAware UK
Tue 05:24:42 AM 52.4500 -6.9220 110° East 504 580 35,000  Level FlightAware ADS-B
Tue 05:25:23 AM 52.4180 -6.7870 111° Southeast 504 580 35,000  Level FlightAware ADS-B
Tue 05:26:03 AM 52.3807 -6.6221 111° Southeast 488 562 35,000  Level FlightAware UK
Tue 05:26:03 AM 52.3830 -6.6340 111° Southeast 501 577 35,000  Level FlightAware ADS-B
Tue 05:26:33 AM 52.3559 -6.5161 111° Southeast 486 559 35,000  Level FlightAware UK
Tue 05:26:44 AM 52.3470 -6.4830 111° Southeast 500 575 35,000  Level FlightAware ADS-B
Tue 05:27:20 AM 52.3160 -6.3520 111° Southeast 500 575 35,000  Level FlightAware ADS-B
Tue 05:27:56 AM 52.2860 -6.2260 111° Southeast 500 575 35,000  Level FlightAware ADS-B
Tue 05:28:29 AM 52.2580 -6.1090 111° Southeast 501 577 35,000  Level FlightAware ADS-B
Tue 05:29:05 AM 52.2280 -5.9860 112° Southeast 501 577 35,000  Level FlightAware ADS-B
Tue 05:29:41 AM 52.1970 -5.8560 111° Southeast 502 578 35,000  Level FlightAware ADS-B
Tue 05:30:14 AM 52.1690 -5.7400 111° Southeast 503 579 35,000  Level FlightAware ADS-B
Tue 05:30:50 AM 52.1380 -5.6170 112° Southeast 504 580 35,000  Level FlightAware ADS-B
Tue 05:31:25 AM 52.1080 -5.4940 112° Southeast 505 581 35,000  Level FlightAware ADS-B
Tue 05:31:59 AM 52.0790 -5.3750 112° Southeast 505 581 35,000  Level FlightAware ADS-B
Tue 05:32:33 AM 52.0478 -5.2501 112° Southeast 490 564 35,000  Level FlightAware UK
Tue 05:32:33 AM 52.0480 -5.2550 112° Southeast 506 582 35,000  Level FlightAware ADS-B
Tue 05:33:09 AM 52.0170 -5.1290 112° Southeast 506 582 35,000  Level FlightAware ADS-B
Tue 05:33:45 AM 51.9920 -4.9980 107° East 516 594 35,000  Level FlightAware ADS-B
Tue 05:34:21 AM 51.9779 -4.8531 107° East 494 568 35,000  Level FlightAware UK
Tue 05:34:21 AM 51.9780 -4.8560 107° East 519 597 35,000  Level FlightAware ADS-B
Tue 05:34:51 AM 51.9687 -4.7376 107° East 494 568 35,000  Level FlightAware UK
Tue 05:34:53 AM 51.9680 -4.7330 107° East 519 597 35,000  Level FlightAware ADS-B
Tue 05:35:29 AM 51.9580 -4.5980 97° East 518 596 35,000  Level FlightAware ADS-B
Tue 05:36:05 AM 51.9450 -4.4560 98° East 517 595 35,000  Level FlightAware ADS-B
Tue 05:36:43 AM 51.9327 -4.3105 98° East 517 595 35,000  Level FlightAware ADS-B
Tue 05:37:14 AM 51.9230 -4.1960 98° East 517 595 35,000  Level FlightAware ADS-B
Tue 05:37:28 AM 51.9171 -4.1382 99° East 517 595 35,000  Level FlightAware ADS-B
Tue 05:38:11 AM 51.9020 -3.9735 98° East 519 597 35,000  Level FlightAware ADS-B
Tue 05:38:45 AM 51.8900 -3.8435 98° East 519 597 35,000  Level FlightAware ADS-B
Tue 05:39:29 AM 51.8739 -3.6748 99° East 519 597 35,000  Level FlightAware ADS-B
Tue 05:40:10 AM 51.8590 -3.5180 99° East 520 598 35,000  Level FlightAware ADS-B
Tue 05:40:39 AM 51.8490 -3.4180 99° East 520 598 35,000  Level FlightAware ADS-B
Tue 05:41:16 AM 51.8347 -3.2650 99° East 519 597 35,000  Level FlightAware ADS-B
Tue 05:41:46 AM 51.8232 -3.1501 99° East 519 597 35,000  Level FlightAware ADS-B
Tue 05:42:17 AM 51.8114 -3.0319 99° East 519 597 35,000  Level FlightAware ADS-B
Tue 05:42:47 AM 51.7999 -2.9177 99° East 519 597 35,000  Level FlightAware ADS-B
Tue 05:43:18 AM 51.7879 -2.7994 99° East 518 596 35,000  Level FlightAware ADS-B
Tue 05:43:49 AM 51.7760 -2.6813 99° East 518 596 35,000  Level FlightAware ADS-B
Tue 05:44:22 AM 51.7626 -2.5559 100° East 517 595 35,000  Level FlightAware ADS-B
Tue 05:44:53 AM 51.7506 -2.4383 99° East 517 595 35,000  Level FlightAware ADS-B
Tue 05:45:23 AM 51.7384 -2.3244 100° East 517 595 35,000  Level FlightAware ADS-B
Tue 05:46:00 AM 51.7234 -2.1844 100° East 518 596 35,000  Level FlightAware ADS-B
Tue 05:46:32 AM 51.7103 -2.0629 100° East 518 596 35,000  Level FlightAware ADS-B
Tue 05:47:03 AM 51.6975 -1.9451 100° East 519 597 35,000  Level FlightAware ADS-B
Tue 05:47:33 AM 51.6848 -1.8311 100° East 519 597 35,000  Level FlightAware ADS-B
Tue 05:48:03 AM 51.6719 -1.7172 100° East 519 597 35,000  Level FlightAware ADS-B
Tue 05:48:34 AM 51.6590 -1.5996 100° East 519 597 35,000  Level FlightAware ADS-B
Tue 05:49:04 AM 51.6458 -1.4855 101° East 519 597 35,000  Level FlightAware ADS-B
Tue 05:49:38 AM 51.6309 -1.3567 101° East 520 598 35,000  Level FlightAware ADS-B
Tue 05:50:08 AM 51.6178 -1.2427 100° East 520 598 35,000  Level FlightAware ADS-B
Tue 05:50:39 AM 51.6042 -1.1253 101° East 520 598 35,000  Level FlightAware ADS-B
Tue 05:51:10 AM 51.5903 -1.0076 101° East 520 598 35,000  Level FlightAware ADS-B
Tue 05:51:40 AM 51.5767 -0.8941 101° East 519 597 35,000  Level FlightAware ADS-B
Tue 05:52:10 AM 51.5631 -0.7808 101° East 520 598 35,000  Level FlightAware ADS-B
Tue 05:52:41 AM 51.5491 -0.6638 101° East 520 598 35,000  Level FlightAware ADS-B
Tue 05:53:11 AM 51.5350 -0.5504 101° East 520 598 35,000  Level FlightAware ADS-B
Tue 05:53:42 AM 51.5207 -0.4331 101° East 520 598 35,000  Level FlightAware ADS-B
Tue 05:54:13 AM 51.5062 -0.3165 101° East 520 598 35,000  Level FlightAware ADS-B
Tue 05:54:44 AM 51.4918 -0.2032 101° East 520 598 35,000  Level FlightAware ADS-B
Tue 05:55:16 AM 51.4765 -0.0788 101° East 519 597 35,000  Level FlightAware ADS-B
Tue 05:55:47 AM 51.4614 0.0378 102° East 519 597 35,000  Level FlightAware ADS-B
Tue 05:56:17 AM 51.4469 0.1504 102° East 519 597 35,000  Level FlightAware ADS-B
Tue 05:56:48 AM 51.4317 0.2669 102° East 519 597 35,000  Level FlightAware ADS-B
Tue 05:57:37 AM 51.4076 0.4510 102° East 518 596 35,000  Level FlightAware ADS-B
Tue 05:58:08 AM 51.3923 0.5668 102° East 518 596 35,000  Level FlightAware ADS-B
Tue 05:58:38 AM 51.3772 0.6792 102° East 518 596 35,000  Level FlightAware ADS-B
Tue 05:59:09 AM 51.3618 0.7950 102° East 518 596 35,000  Level FlightAware ADS-B
Tue 05:59:40 AM 51.3463 0.9105 102° East 518 596 35,000  Level FlightAware ADS-B
Tue 06:00:10 AM 51.3307 1.0226 103° East 518 596 35,000  Level FlightAware ADS-B
Tue 06:00:42 AM 51.3142 1.1455 103° East 490 564 35,000  Level FlightAware UK
Tue 06:00:42 AM 51.3150 1.1380 103° East 517 595 35,000  Level FlightAware ADS-B
Tue 06:01:12 AM 51.2985 1.2570 103° East 488 562 35,000  Level FlightAware UK
Tue 06:01:18 AM 51.2960 1.2720 103° East 516 594 35,000  Level FlightAware ADS-B
Tue 06:01:49 AM 51.2799 1.3916 103° East 488 562 35,000  Level FlightAware UK
Tue 06:01:50 AM 51.2790 1.3940 103° East 515 593 35,000  Level FlightAware ADS-B
Tue 06:02:26 AM 51.2610 1.5200 103° East 514 592 35,000  Level FlightAware ADS-B
Tue 06:03:02 AM 51.2400 1.6560 104° East 513 590 35,000  Level FlightAware ADS-B
Tue 06:03:32 AM 51.2220 1.7620 105° East 513 590 35,000  Level FlightAware ADS-B
Tue 06:04:08 AM 51.1990 1.8930 106° East 512 589 35,000  Level FlightAware ADS-B
Tue 06:04:44 AM 51.1740 2.0230 107° East 512 589 35,000  Level FlightAware ADS-B
Tue 06:05:20 AM 51.1500 2.1530 106° East 512 589 35,000  Level FlightAware ADS-B
Tue 06:05:55 AM 51.1260 2.2870 106° East 512 589 35,000  Level FlightAware ADS-B
Tue 06:06:34 AM 51.0990 2.4280 107° East 512 589 35,000  Level FlightAware ADS-B
Tue 06:07:06 AM 51.0770 2.5430 107° East 512 589 35,000  Level FlightAware ADS-B
Tue 06:07:38 AM 51.0560 2.6550 107° East 512 589 35,000  Level FlightAware ADS-B
Tue 06:07:43 AM 51.0520 2.6791 107° East 488 562 35,000  Level FlightAware UK
Tue 06:08:15 AM 51.0300 2.7910 107° East 511 588 35,000  Level FlightAware ADS-B
Tue 06:08:53 AM 51.0050 2.9200 107° East 512 589 35,000  Level FlightAware ADS-B
Tue 06:09:25 AM 50.9830 3.0390 106° East 512 589 35,000  Level FlightAware ADS-B
Tue 06:09:55 AM 50.9608 3.1527 106° East 486 559 35,000  Level FlightAware UK
Tue 06:10:01 AM 50.9570 3.1680 106° East 512 589 35,000  Level FlightAware ADS-B
Tue 06:10:31 AM 50.9357 3.2826 106° East 488 562 35,000  Level FlightAware UK
Tue 06:10:37 AM 50.9320 3.3010 106° East 512 589 35,000  Level FlightAware ADS-B
Tue 06:11:01 AM 50.9150 3.3860 106° East 512 589 35,000  Level FlightAware ADS-B
Tue 06:11:07 AM 50.9102 3.4114 106° East 488 562 35,000  Level FlightAware UK
Tue 06:11:43 AM 50.8848 3.5400 106° East 488 562 35,000  Level FlightAware UK
Tue 06:11:50 AM 50.8800 3.5610 106° East 512 589 35,000  Level FlightAware ADS-B
Tue 06:12:26 AM 50.8550 3.6860 108° East 512 589 35,000  Level FlightAware ADS-B
Tue 06:12:58 AM 50.8320 3.8040 108° East 513 590 35,000  Level FlightAware ADS-B
Tue 06:13:01 AM 50.8293 3.8186 108° East 486 559 35,000  Level FlightAware UK
Tue 06:13:33 AM 50.8060 3.9290 108° East 514 592 35,000  Level FlightAware ADS-B
Tue 06:14:09 AM 50.7800 4.0580 108° East 515 593 35,000  Level FlightAware ADS-B
Tue 06:14:46 AM 50.7550 4.1830 107° East 515 593 35,000  Level FlightAware ADS-B
Tue 06:15:21 AM 50.7280 4.3150 108° East 516 594 35,000  Level FlightAware ADS-B
Tue 06:15:53 AM 50.7040 4.4290 108° East 516 594 35,000  Level FlightAware ADS-B
Tue 06:16:31 AM 50.6750 4.5650 109° East 515 593 35,000  Level FlightAware ADS-B
Tue 06:17:07 AM 50.6490 4.6930 108° East 516 594 35,000  Level FlightAware ADS-B
Tue 06:17:39 AM 50.6260 4.8000 109° East 515 593 35,000  Level FlightAware ADS-B
Tue 06:18:15 AM 50.5980 4.9320 108° East 515 593 35,000  Level FlightAware ADS-B
Tue 06:18:51 AM 50.5700 5.0630 109° East 515 593 35,000  Level FlightAware ADS-B
Tue 06:19:30 AM 50.5410 5.1970 109° East 514 592 35,000  Level FlightAware ADS-B
Tue 06:20:06 AM 50.5130 5.3280 109° East 514 592 35,000  Level FlightAware ADS-B
Tue 06:20:42 AM 50.4870 5.4480 109° East 514 592 35,000  Level FlightAware ADS-B
Tue 06:21:18 AM 50.4600 5.5710 109° East 515 593 35,000  Level FlightAware ADS-B
Tue 06:21:48 AM 50.4370 5.6770 109° East 515 593 35,000  Level FlightAware ADS-B
Tue 06:22:24 AM 50.4080 5.8040 110° East 515 593 35,000  Level FlightAware ADS-B
Tue 06:22:58 AM 50.3820 5.9200 109° East 516 594 35,000  Level FlightAware ADS-B
Tue 06:23:34 AM 50.3540 6.0470 109° East 516 594 35,000  Level FlightAware ADS-B
Tue 06:24:09 AM 50.3260 6.1700 110° East 517 595 35,000  Level FlightAware ADS-B
Tue 06:24:55 AM 50.2880 6.3390 109° East 517 595 35,000  Level FlightAware ADS-B
Tue 06:25:27 AM 50.2610 6.4550 110° East 518 596 35,000  Level FlightAware ADS-B
Tue 06:26:03 AM 50.2320 6.5850 109° East 518 596 35,000  Level FlightAware ADS-B
Tue 06:26:37 AM 50.2050 6.7010 110° East 517 595 35,000  Level FlightAware ADS-B
Tue 06:27:15 AM 50.1740 6.8340 110° East 517 595 35,000  Level FlightAware ADS-B
Tue 06:27:43 AM 50.1510 6.9320 110° East 518 596 35,000  Level FlightAware ADS-B
Tue 06:28:23 AM 50.1180 7.0690 111° Southeast 517 595 35,000  Level FlightAware ADS-B
Tue 06:28:57 AM 50.0880 7.1940 110° East 517 595 35,000  Level FlightAware ADS-B
Tue 06:29:33 AM 50.0600 7.3160 110° East 517 595 35,000  Level FlightAware ADS-B
Tue 06:30:09 AM 50.0290 7.4450 110° East 517 595 35,000  Level FlightAware ADS-B
Tue 06:30:45 AM 49.9990 7.5710 110° East 518 596 35,000  Level FlightAware ADS-B
Tue 06:31:17 AM 49.9720 7.6820 111° Southeast 518 596 35,000  Level FlightAware ADS-B
Tue 06:31:53 AM 49.9410 7.8080 111° Southeast 519 597 35,000  Level FlightAware ADS-B
Tue 06:32:31 AM 49.9090 7.9400 111° Southeast 517 595 35,000  Level FlightAware ADS-B
Tue 06:33:03 AM 49.8820 8.0500 111° Southeast 517 595 35,000  Level FlightAware ADS-B
Tue 06:33:39 AM 49.8510 8.1750 111° Southeast 518 596 35,000  Level FlightAware ADS-B
Tue 06:34:15 AM 49.8200 8.2990 111° Southeast 518 596 35,000  Level FlightAware ADS-B
Tue 06:34:51 AM 49.7810 8.4180 117° Southeast 520 598 35,000  Level FlightAware ADS-B
Tue 06:35:03 AM 49.7620 8.4520 131° Southeast 522 601 35,000  Level FlightAware ADS-B
Tue 06:35:19 AM 49.7340 8.4840 144° Southeast 521 600 35,000  Level FlightAware ADS-B
Tue 06:35:51 AM 49.6640 8.5410 152° Southeast 520 598 35,000  Level FlightAware ADS-B
Tue 06:36:27 AM 49.5840 8.5970 156° South 520 598 35,000  Level FlightAware ADS-B
Tue 06:37:01 AM 49.5090 8.6480 156° South 520 598 35,000  Level FlightAware ADS-B
Tue 06:37:35 AM 49.4340 8.7000 156° South 520 598 35,000  Level FlightAware ADS-B
Tue 06:38:09 AM 49.3600 8.7520 155° Southeast 521 600 35,000  Level FlightAware ADS-B
Tue 06:38:48 AM 49.2750 8.8110 156° South 521 600 35,000  Level FlightAware ADS-B
Tue 06:39:24 AM 49.1950 8.8660 156° South 522 601 35,000  Level FlightAware ADS-B
Tue 06:39:55 AM 49.1280 8.9120 156° South 522 601 35,000  Level FlightAware ADS-B
Tue 06:40:32 AM 49.0470 8.9680 156° South 523 602 35,000  Level FlightAware ADS-B
Tue 06:41:07 AM 48.9680 9.0220 156° South 523 602 35,000  Level FlightAware ADS-B
Tue 06:41:41 AM 48.8940 9.0720 156° South 523 602 35,000  Level FlightAware ADS-B
Tue 06:42:17 AM 48.8120 9.1290 155° Southeast 523 602 35,000  Level FlightAware ADS-B
Tue 06:42:52 AM 48.7350 9.1800 156° South 523 602 35,000  Level FlightAware ADS-B
Tue 06:43:25 AM 48.6640 9.2290 155° Southeast 522 601 35,000  Level FlightAware ADS-B
Tue 06:44:01 AM 48.5820 9.2790 158° South 522 601 35,000  Level FlightAware ADS-B
Tue 06:44:39 AM 48.4970 9.3270 159° South 522 601 35,000  Level FlightAware ADS-B
Tue 06:45:09 AM 48.4300 9.3710 156° South 522 601 35,000  Level FlightAware ADS-B
Tue 06:45:46 AM 48.3530 9.4380 150° Southeast 522 601 35,000  Level FlightAware ADS-B
Tue 06:46:23 AM 48.2800 9.5110 146° Southeast 521 600 35,000  Level FlightAware ADS-B
Tue 06:46:57 AM 48.2100 9.5820 146° Southeast 522 601 35,000  Level FlightAware ADS-B
Tue 06:47:32 AM 48.1410 9.6530 146° Southeast 522 601 35,000  Level FlightAware ADS-B
Tue 06:48:07 AM 48.0720 9.7230 146° Southeast 521 600 35,000  Level FlightAware ADS-B
Tue 06:48:40 AM 48.0060 9.7870 147° Southeast 521 600 35,000  Level FlightAware ADS-B
Tue 06:49:17 AM 47.9330 9.8610 146° Southeast 520 598 35,000  Level FlightAware ADS-B
Tue 06:49:50 AM 47.8650 9.9280 147° Southeast 520 598 35,000  Level FlightAware ADS-B
Tue 06:50:29 AM 47.7880 10.0030 147° Southeast 518 596 35,000  Level FlightAware ADS-B
Tue 06:51:00 AM 47.7250 10.0660 146° Southeast 518 596 35,000  Level FlightAware ADS-B
Tue 06:51:35 AM 47.6560 10.1320 147° Southeast 518 596 35,000  Level FlightAware ADS-B
Tue 06:52:14 AM 47.5760 10.2100 147° Southeast 518 596 35,000  Level FlightAware ADS-B
Tue 06:52:45 AM 47.5150 10.2710 146° Southeast 518 596 35,000  Level FlightAware ADS-B
Tue 06:53:15 AM 47.4580 10.3250 147° Southeast 517 595 35,000  Level FlightAware ADS-B
Tue 06:53:53 AM 47.3830 10.3970 147° Southeast 517 595 35,000  Level FlightAware ADS-B
Tue 06:54:31 AM 47.3020 10.4760 147° Southeast 518 596 35,000  Level FlightAware ADS-B
Tue 06:55:14 AM 47.2190 10.5550 147° Southeast 518 596 35,000  Level FlightAware ADS-B
Tue 06:55:48 AM 47.1500 10.6220 147° Southeast 518 596 35,000  Level FlightAware ADS-B
Tue 06:56:23 AM 47.0810 10.6920 145° Southeast 517 595 35,000  Level FlightAware ADS-B
Tue 06:56:57 AM 47.0170 10.7720 140° Southeast 514 592 35,000  Level FlightAware ADS-B
Tue 06:57:32 AM 46.9610 10.8610 133° Southeast 513 590 35,000  Level FlightAware ADS-B
Tue 06:58:11 AM 46.8990 10.9570 133° Southeast 512 589 35,000  Level FlightAware ADS-B
Tue 06:58:42 AM 46.8510 11.0330 133° Southeast 511 588 35,000  Level FlightAware ADS-B
Tue 06:59:17 AM 46.7920 11.1260 133° Southeast 511 588 35,000  Level FlightAware ADS-B
Tue 06:59:53 AM 46.7350 11.2140 133° Southeast 510 587 35,000  Level FlightAware ADS-B
Tue 07:00:26 AM 46.6800 11.2990 133° Southeast 511 588 35,000  Level FlightAware ADS-B
Tue 07:01:05 AM 46.6180 11.3910 134° Southeast 511 588 35,000  Level FlightAware ADS-B
Tue 07:01:37 AM 46.5640 11.4760 133° Southeast 511 588 35,000  Level FlightAware ADS-B
Tue 07:02:14 AM 46.5050 11.5650 134° Southeast 511 588 35,000  Level FlightAware ADS-B
Tue 07:02:46 AM 46.4540 11.6420 134° Southeast 511 588 35,000  Level FlightAware ADS-B
Tue 07:03:26 AM 46.3910 11.7390 133° Southeast 511 588 35,000  Level FlightAware ADS-B
Tue 07:04:06 AM 46.3240 11.8400 134° Southeast 512 589 35,000  Level FlightAware ADS-B
Tue 07:04:41 AM 46.2670 11.9270 133° Southeast 512 589 35,000  Level FlightAware ADS-B
Tue 07:05:16 AM 46.2070 12.0160 134° Southeast 512 589 35,000  Level FlightAware ADS-B
Tue 07:05:46 AM 46.1600 12.0870 134° Southeast 512 589 35,000  Level FlightAware ADS-B
Tue 07:06:26 AM 46.0920 12.1870 134° Southeast 512 589 35,000  Level FlightAware ADS-B
Tue 07:07:01 AM 46.0370 12.2680 134° Southeast 513 590 35,000  Level FlightAware ADS-B
Tue 07:07:41 AM 45.9710 12.3660 134° Southeast 513 590 35,000  Level FlightAware ADS-B
Tue 07:08:16 AM 45.9160 12.4470 134° Southeast 513 590 35,000  Level FlightAware ADS-B
Tue 07:08:51 AM 45.8520 12.5420 134° Southeast 512 589 35,000  Level FlightAware ADS-B
Tue 07:09:26 AM 45.7990 12.6280 131° Southeast 505 581 35,000  Level FlightAware ADS-B
Tue 07:10:01 AM 45.7480 12.7200 128° Southeast 503 579 35,000  Level FlightAware ADS-B
Tue 07:10:36 AM 45.6950 12.8150 129° Southeast 501 577 35,000  Level FlightAware ADS-B
Tue 07:11:11 AM 45.6450 12.9070 128° Southeast 501 577 35,000  Level FlightAware ADS-B
Tue 07:11:31 AM 45.6200 12.9540 127° Southeast 501 577 35,000  Level FlightAware ADS-B
Tue 07:12:15 AM 45.5590 13.0650 128° Southeast 501 577 35,000  Level FlightAware ADS-B
Tue 07:12:54 AM 45.5020 13.1680 128° Southeast 501 577 35,000  Level FlightAware ADS-B
Tue 07:13:25 AM 45.4530 13.2570 128° Southeast 502 578 35,000  Level FlightAware ADS-B
Tue 07:14:04 AM 45.3960 13.3630 127° Southeast 503 579 35,000 160 Level FlightAware ADS-B
Tue 07:14:40 AM 45.3460 13.4520 129° Southeast 505 581 35,200 727 Climbing FlightAware ADS-B
Tue 07:15:10 AM 45.3000 13.5330 129° Southeast 512 589 35,800 1,130 Climbing FlightAware ADS-B
Tue 07:15:49 AM 45.2450 13.6300 129° Southeast 512 589 36,500 960 Climbing FlightAware ADS-B
Tue 07:16:25 AM 45.1900 13.7260 129° Southeast 513 590 37,000 423 Climbing FlightAware ADS-B
Tue 07:17:00 AM 45.1380 13.8210 128° Southeast 510 587 37,000  Level FlightAware ADS-B
Tue 07:17:36 AM 45.0880 13.9180 126° Southeast 503 579 37,000  Level FlightAware ADS-B
Tue 07:18:15 AM 45.0290 14.0260 128° Southeast 507 583 37,000  Level FlightAware ADS-B
Tue 07:18:50 AM 44.9800 14.1180 127° Southeast 506 582 37,000  Level FlightAware ADS-B
Tue 07:19:25 AM 44.9310 14.2070 128° Southeast 506 582 37,000  Level FlightAware ADS-B
Tue 07:20:00 AM 44.8840 14.2940 127° Southeast 506 582 37,000  Level FlightAware ADS-B
Tue 07:20:41 AM 44.8250 14.4030 127° Southeast 505 581 37,000  Level FlightAware ADS-B
Tue 07:21:16 AM 44.7760 14.4910 128° Southeast 505 581 37,000  Level FlightAware ADS-B
Tue 07:21:51 AM 44.7260 14.5820 128° Southeast 505 581 37,000  Level FlightAware ADS-B
Tue 07:22:26 AM 44.6740 14.6760 128° Southeast 507 583 37,000  Level FlightAware ADS-B
Tue 07:23:15 AM 44.6020 14.8050 128° Southeast 503 579 37,000  Level FlightAware ADS-B
Tue 07:23:50 AM 44.5520 14.8940 128° Southeast 503 579 37,000  Level FlightAware ADS-B
Tue 07:24:33 AM 44.4910 15.0060 127° Southeast 505 581 37,000  Level FlightAware ADS-B
Tue 07:25:19 AM 44.4210 15.1300 128° Southeast 505 581 37,000  Level FlightAware ADS-B
Tue 07:25:56 AM 44.3730 15.2160 128° Southeast 512 589 37,000  Level FlightAware ADS-B
Tue 07:26:37 AM 44.3080 15.3300 129° Southeast 507 583 37,000  Level FlightAware ADS-B
Tue 07:27:15 AM 44.2570 15.4210 128° Southeast 506 582 37,000  Level FlightAware ADS-B
Tue 07:27:48 AM 44.2070 15.5090 128° Southeast 506 582 37,000  Level FlightAware ADS-B
Tue 07:28:23 AM 44.1540 15.6010 129° Southeast 505 581 37,000  Level FlightAware ADS-B
Tue 07:28:58 AM 44.1020 15.6930 128° Southeast 503 579 37,000  Level FlightAware ADS-B
Tue 07:29:34 AM 44.0490 15.7850 129° Southeast 501 577 37,000  Level FlightAware ADS-B
Tue 07:30:09 AM 43.9980 15.8740 129° Southeast 501 577 37,000  Level FlightAware ADS-B
Tue 07:30:44 AM 43.9480 15.9600 129° Southeast 502 578 37,000  Level FlightAware ADS-B
Tue 07:31:19 AM 43.8960 16.0490 129° Southeast 503 579 37,000  Level FlightAware ADS-B
Tue 07:31:53 AM 43.8450 16.1380 128° Southeast 509 586 37,000  Level FlightAware ADS-B
Tue 07:32:29 AM 43.7910 16.2320 128° Southeast 510 587 37,000  Level FlightAware ADS-B
Tue 07:33:01 AM 43.7420 16.3130 130° Southeast 511 588 37,000  Level FlightAware ADS-B
Tue 07:33:39 AM 43.6870 16.4070 129° Southeast 511 588 37,000  Level FlightAware ADS-B
Tue 07:34:15 AM 43.6350 16.4960 129° Southeast 510 587 37,000  Level FlightAware ADS-B
Tue 07:34:51 AM 43.5800 16.5890 129° Southeast 508 585 37,000  Level FlightAware ADS-B
Tue 07:35:21 AM 43.5360 16.6640 129° Southeast 508 585 37,000  Level FlightAware ADS-B
Tue 07:35:57 AM 43.4810 16.7570 129° Southeast 508 585 37,000  Level FlightAware ADS-B
Tue 07:36:37 AM 43.4220 16.8570 129° Southeast 506 582 37,000  Level FlightAware ADS-B
Tue 07:37:07 AM 43.3780 16.9290 130° Southeast 505 581 37,000  Level FlightAware ADS-B
Tue 07:37:45 AM 43.3220 17.0230 129° Southeast 504 580 37,000  Level FlightAware ADS-B
Tue 07:38:17 AM 43.2730 17.1050 129° Southeast 503 579 37,000  Level FlightAware ADS-B
Tue 07:38:57 AM 43.2130 17.2030 130° Southeast 503 579 37,000  Level FlightAware ADS-B
Tue 07:39:28 AM 43.1690 17.2770 129° Southeast 503 579 37,000  Level FlightAware ADS-B
Tue 07:40:05 AM 43.1130 17.3700 129° Southeast 504 580 37,000  Level FlightAware ADS-B
Tue 07:40:37 AM 43.0650 17.4490 130° Southeast 504 580 37,000  Level FlightAware ADS-B
Tue 07:41:15 AM 43.0100 17.5390 130° Southeast 503 579 37,000  Level FlightAware ADS-B
Tue 07:41:51 AM 42.9550 17.6290 130° Southeast 504 580 37,000  Level FlightAware ADS-B
Tue 07:42:27 AM 42.9010 17.7170 130° Southeast 503 579 37,000  Level FlightAware ADS-B
Tue 07:42:59 AM 42.8530 17.7950 130° Southeast 503 579 37,000  Level FlightAware ADS-B
Tue 07:43:35 AM 42.8000 17.8820 130° Southeast 503 579 37,000  Level FlightAware ADS-B
Tue 07:44:11 AM 42.7460 17.9670 131° Southeast 503 579 37,000  Level FlightAware ADS-B
Tue 07:44:47 AM 42.6910 18.0560 130° Southeast 503 579 37,000  Level FlightAware ADS-B
Tue 07:45:36 AM 42.6240 18.1650 130° Southeast 504 580 37,000  Level FlightAware ADS-B
Tue 07:46:14 AM 42.5600 18.2660 131° Southeast 505 581 37,000  Level FlightAware ADS-B
Tue 07:46:50 AM 42.5020 18.3460 135° Southeast 506 582 37,000  Level FlightAware ADS-B
Tue 07:47:22 AM 42.4500 18.4180 134° Southeast 505 581 37,000  Level FlightAware ADS-B
Tue 07:48:02 AM 42.3820 18.5070 136° Southeast 505 581 37,000  Level FlightAware ADS-B
Tue 07:48:34 AM 42.3300 18.5780 135° Southeast 504 580 37,000  Level FlightAware ADS-B
Tue 07:49:12 AM 42.2680 18.6620 135° Southeast 504 580 37,000  Level FlightAware ADS-B
Tue 07:49:48 AM 42.2060 18.7440 136° Southeast 504 580 37,000  Level FlightAware ADS-B
Tue 07:50:20 AM 42.1520 18.8150 136° Southeast 504 580 37,000  Level FlightAware ADS-B
Tue 07:51:04 AM 42.0800 18.9120 135° Southeast 504 580 37,000  Level FlightAware ADS-B
Tue 07:51:40 AM 42.0200 18.9910 136° Southeast 503 579 37,000  Level FlightAware ADS-B
Tue 07:52:12 AM 41.9670 19.0610 136° Southeast 504 580 37,000  Level FlightAware ADS-B
Tue 07:52:48 AM 41.9070 19.1410 135° Southeast 505 581 37,000  Level FlightAware ADS-B
Tue 07:53:21 AM 41.8520 19.2130 136° Southeast 505 581 37,000  Level FlightAware ADS-B
Tue 07:54:00 AM 41.7850 19.2970 137° Southeast 505 581 37,000  Level FlightAware ADS-B
Tue 07:54:32 AM 41.7340 19.3650 135° Southeast 504 580 37,000  Level FlightAware ADS-B
Tue 07:55:06 AM 41.6760 19.4380 137° Southeast 504 580 37,000  Level FlightAware ADS-B
Tue 07:55:45 AM 41.6110 19.5220 136° Southeast 504 580 37,000  Level FlightAware ADS-B
Tue 07:56:16 AM 41.5580 19.5910 136° Southeast 505 581 37,000  Level FlightAware ADS-B
Tue 07:56:54 AM 41.4930 19.6730 137° Southeast 505 581 37,000  Level FlightAware ADS-B
Tue 07:57:30 AM 41.4310 19.7510 137° Southeast 507 583 37,000  Level FlightAware ADS-B
Tue 07:58:02 AM 41.3780 19.8200 136° Southeast 507 583 37,000  Level FlightAware ADS-B
Tue 07:58:38 AM 41.3170 19.8980 136° Southeast 508 585 37,000  Level FlightAware ADS-B
Tue 07:59:14 AM 41.2590 19.9710 137° Southeast 507 583 37,000  Level FlightAware ADS-B
Tue 07:59:46 AM 41.2010 20.0440 137° Southeast 507 583 37,000  Level FlightAware ADS-B
Tue 08:00:22 AM 41.1390 20.1210 137° Southeast 507 583 37,000  Level FlightAware ADS-B
Tue 08:00:59 AM 41.0770 20.2000 136° Southeast 505 581 37,000  Level FlightAware ADS-B
Tue 08:01:32 AM 41.0210 20.2670 138° Southeast 504 580 37,000  Level FlightAware ADS-B
Tue 08:02:10 AM 40.9570 20.3500 136° Southeast 502 578 37,000  Level FlightAware ADS-B
Tue 08:02:40 AM 40.9060 20.4130 137° Southeast 501 577 37,000  Level FlightAware ADS-B
Tue 08:03:18 AM 40.8430 20.4900 137° Southeast 500 575 37,000  Level FlightAware ADS-B
Tue 08:03:55 AM 40.7800 20.5680 137° Southeast 499 574 37,000  Level FlightAware ADS-B
Tue 08:04:26 AM 40.7270 20.6340 137° Southeast 499 574 37,000  Level FlightAware ADS-B
Tue 08:05:02 AM 40.6650 20.7090 137° Southeast 499 574 37,000  Level FlightAware ADS-B
Tue 08:05:36 AM 40.6090 20.7800 136° Southeast 498 573 37,000  Level FlightAware ADS-B
Tue 08:06:12 AM 40.5480 20.8540 137° Southeast 497 572 37,000  Level FlightAware ADS-B
Tue 08:06:47 AM 40.4900 20.9260 137° Southeast 497 572 37,000  Level FlightAware ADS-B
Tue 08:07:23 AM 40.4300 20.9980 138° Southeast 498 573 37,000  Level FlightAware ADS-B
Tue 08:07:59 AM 40.3670 21.0740 137° Southeast 498 573 37,000  Level FlightAware ADS-B
Tue 08:08:35 AM 40.3060 21.1480 137° Southeast 499 574 37,000  Level FlightAware ADS-B
Tue 08:09:07 AM 40.2530 21.2140 136° Southeast 501 577 37,000  Level FlightAware ADS-B
Tue 08:09:41 AM 40.1930 21.2840 138° Southeast 504 580 37,000  Level FlightAware ADS-B
Tue 08:10:19 AM 40.1300 21.3600 137° Southeast 505 581 37,000  Level FlightAware ADS-B
Tue 08:10:51 AM 40.0730 21.4290 137° Southeast 507 583 37,000  Level FlightAware ADS-B
Tue 08:11:27 AM 40.0250 21.4870 137° Southeast 507 583 37,000  Level FlightAware ADS-B
Tue 08:12:03 AM 39.9500 21.5760 138° Southeast 507 583 37,000  Level FlightAware ADS-B
Tue 08:12:35 AM 39.8930 21.6440 138° Southeast 507 583 37,000  Level FlightAware ADS-B
Tue 08:13:11 AM 39.8310 21.7180 137° Southeast 508 585 37,000  Level FlightAware ADS-B
Tue 08:13:47 AM 39.7690 21.7900 138° Southeast 509 586 37,000  Level FlightAware ADS-B
Tue 08:14:19 AM 39.7130 21.8580 137° Southeast 511 588 37,000  Level FlightAware ADS-B
Tue 08:14:55 AM 39.6480 21.9330 138° Southeast 512 589 37,000  Level FlightAware ADS-B
Tue 08:15:31 AM 39.5860 22.0070 137° Southeast 513 590 37,000  Level FlightAware ADS-B
Tue 08:16:07 AM 39.5220 22.0820 138° Southeast 516 594 37,000  Level FlightAware ADS-B
Tue 08:16:41 AM 39.4630 22.1500 138° Southeast 518 596 37,000  Level FlightAware ADS-B
Tue 08:17:15 AM 39.4020 22.2230 137° Southeast 519 597 37,000  Level FlightAware ADS-B
Tue 08:17:53 AM 39.3350 22.3000 138° Southeast 520 598 37,000  Level FlightAware ADS-B
Tue 08:18:25 AM 39.2770 22.3690 137° Southeast 520 598 37,000  Level FlightAware ADS-B
Tue 08:18:59 AM 39.2160 22.4390 138° Southeast 521 600 37,000  Level FlightAware ADS-B
Tue 08:19:36 AM 39.1510 22.5140 138° Southeast 523 602 37,000  Level FlightAware ADS-B
Tue 08:20:11 AM 39.0870 22.5870 138° Southeast 521 600 37,000  Level FlightAware ADS-B
Tue 08:20:45 AM 39.0250 22.6590 138° Southeast 521 600 37,000  Level FlightAware ADS-B
Tue 08:21:23 AM 38.9610 22.7310 139° Southeast 521 600 37,000  Level FlightAware ADS-B
Tue 08:21:55 AM 38.8990 22.8040 137° Southeast 520 598 37,000  Level FlightAware ADS-B
Tue 08:22:31 AM 38.8350 22.8770 138° Southeast 519 597 37,000  Level FlightAware ADS-B
Tue 08:23:04 AM 38.7760 22.9450 138° Southeast 517 595 37,000  Level FlightAware ADS-B
Tue 08:23:41 AM 38.7080 23.0200 139° Southeast 514 592 37,000  Level FlightAware ADS-B
Tue 08:24:16 AM 38.6480 23.0880 138° Southeast 514 592 37,000  Level FlightAware ADS-B
Tue 08:24:53 AM 38.5820 23.1630 138° Southeast 515 593 37,000  Level FlightAware ADS-B
Tue 08:25:24 AM 38.5250 23.2270 139° Southeast 515 593 37,000  Level FlightAware ADS-B
Tue 08:26:00 AM 38.4610 23.3000 138° Southeast 516 594 37,000  Level FlightAware ADS-B
Tue 08:26:38 AM 38.3940 23.3740 139° Southeast 517 595 37,000  Level FlightAware ADS-B
Tue 08:27:10 AM 38.3350 23.4410 138° Southeast 518 596 37,000  Level FlightAware ADS-B
Tue 08:27:46 AM 38.2710 23.5110 139° Southeast 517 595 37,000  Level FlightAware ADS-B
Tue 08:28:22 AM 38.2090 23.5810 138° Southeast 516 594 37,000  Level FlightAware ADS-B
Tue 08:28:55 AM 38.1490 23.6470 139° Southeast 513 590 37,000  Level FlightAware ADS-B
Tue 08:29:33 AM 38.0800 23.7240 139° Southeast 512 589 37,000  Level FlightAware ADS-B
Tue 08:30:07 AM 38.0210 23.7990 135° Southeast 524 603 37,000  Level FlightAware ADS-B
Tue 08:30:38 AM 37.9750 23.8750 128° Southeast 529 609 37,000  Level FlightAware ADS-B
Tue 08:31:14 AM 37.9270 23.9690 123° Southeast 532 612 37,000  Level FlightAware ADS-B
Tue 08:31:48 AM 37.8820 24.0590 122° Southeast 532 612 37,000  Level FlightAware ADS-B
Tue 08:32:34 AM 37.8230 24.1770 122° Southeast 533 613 37,000  Level FlightAware ADS-B
Tue 08:33:06 AM 37.7790 24.2630 123° Southeast 532 612 37,000  Level FlightAware ADS-B
Tue 08:33:43 AM 37.7300 24.3570 123° Southeast 531 611 37,000  Level FlightAware ADS-B
Tue 08:34:18 AM 37.6820 24.4510 123° Southeast 531 611 37,000  Level FlightAware ADS-B
Tue 08:34:54 AM 37.6350 24.5410 123° Southeast 531 611 37,000  Level FlightAware ADS-B
Tue 08:35:26 AM 37.5920 24.6250 123° Southeast 531 611 37,000  Level FlightAware ADS-B
Tue 08:36:02 AM 37.5440 24.7180 123° Southeast 531 611 37,000  Level FlightAware ADS-B
Tue 08:36:38 AM 37.4960 24.8110 123° Southeast 529 609 37,000  Level FlightAware ADS-B
Tue 08:37:14 AM 37.4480 24.9030 123° Southeast 529 609 37,000  Level FlightAware ADS-B
Tue 08:37:46 AM 37.4040 24.9860 124° Southeast 530 610 37,000  Level FlightAware ADS-B
Tue 08:38:20 AM 37.3570 25.0760 123° Southeast 530 610 37,000  Level FlightAware ADS-B
Tue 08:39:00 AM 37.3060 25.1740 123° Southeast 531 611 37,000  Level FlightAware ADS-B
Tue 08:39:32 AM 37.2630 25.2540 124° Southeast 531 611 37,000  Level FlightAware ADS-B
Tue 08:40:08 AM 37.2120 25.3510 123° Southeast 531 611 37,000  Level FlightAware ADS-B
Tue 08:40:43 AM 37.1640 25.4440 123° Southeast 531 611 37,000  Level FlightAware ADS-B
Tue 08:41:15 AM 37.1200 25.5260 124° Southeast 533 613 37,000  Level FlightAware ADS-B
Tue 08:41:52 AM 37.0700 25.6210 123° Southeast 534 615 37,000  Level FlightAware ADS-B
Tue 08:42:27 AM 37.0210 25.7110 124° Southeast 533 613 37,000  Level FlightAware ADS-B
Tue 08:43:01 AM 36.9750 25.7980 123° Southeast 533 613 37,000  Level FlightAware ADS-B
Tue 08:43:37 AM 36.9260 25.8910 123° Southeast 533 613 37,000  Level FlightAware ADS-B
Tue 08:44:11 AM 36.8790 25.9770 124° Southeast 531 611 37,000  Level FlightAware ADS-B
Tue 08:44:47 AM 36.8290 26.0690 124° Southeast 531 611 37,000  Level FlightAware ADS-B
Tue 08:45:23 AM 36.7800 26.1610 124° Southeast 531 611 37,000  Level FlightAware ADS-B
Tue 08:45:59 AM 36.7300 26.2520 124° Southeast 530 610 37,000  Level FlightAware ADS-B
Tue 08:46:35 AM 36.6810 26.3430 124° Southeast 530 610 37,000  Level FlightAware ADS-B
Tue 08:47:07 AM 36.6380 26.4210 124° Southeast 530 610 37,000  Level FlightAware ADS-B
Tue 08:47:43 AM 36.5890 26.5120 124° Southeast 530 610 37,000  Level FlightAware ADS-B
Tue 08:48:19 AM 36.5370 26.6080 124° Southeast 529 609 37,000  Level FlightAware ADS-B
Tue 08:48:51 AM 36.4940 26.6850 125° Southeast 528 608 37,000  Level FlightAware ADS-B
Tue 08:49:27 AM 36.4450 26.7760 124° Southeast 527 606 37,000  Level FlightAware ADS-B
Tue 08:50:03 AM 36.3950 26.8650 125° Southeast 528 608 37,000  Level FlightAware ADS-B
Tue 08:50:56 AM 36.3270 26.9890 124° Southeast 528 608 37,000  Level FlightAware ADS-B
Tue 08:51:32 AM 36.2850 27.0660 124° Southeast 528 608 37,000  Level FlightAware ADS-B
Tue 08:52:08 AM 36.2440 27.1430 123° Southeast 528 608 37,000  Level FlightAware ADS-B
Tue 08:53:04 AM 36.1520 27.3040 125° Southeast 527 606 37,000  Level FlightAware ADS-B
Tue 08:53:40 AM 36.1110 27.3800 124° Southeast 527 606 37,000  Level FlightAware ADS-B
Tue 08:54:16 AM 36.0690 27.4570 124° Southeast 527 606 37,000  Level FlightAware ADS-B
Tue 08:54:54 AM 36.0250 27.5380 124° Southeast 527 606 37,000  Level FlightAware ADS-B
Tue 08:55:30 AM 35.9830 27.6140 124° Southeast 527 606 37,000  Level FlightAware ADS-B
Tue 08:56:06 AM 35.9410 27.6910 124° Southeast 527 606 37,000  Level FlightAware ADS-B
Tue 08:56:59 AM 35.8270 27.8820 126° Southeast 517 595 37,000  Level FlightAware ADS-B
Tue 08:57:45 AM 35.7750 27.9770 124° Southeast 517 595 37,000  Level FlightAware ADS-B
Tue 08:58:27 AM 35.7000 28.1030 126° Southeast 519 597 37,000  Level FlightAware ADS-B
Tue 08:59:01 AM 35.6530 28.1820 126° Southeast 519 597 37,000  Level FlightAware ADS-B
Tue 08:59:37 AM 35.6030 28.2710 125° Southeast 518 596 37,000  Level FlightAware ADS-B
Tue 09:00:13 AM 35.5540 28.3560 125° Southeast 518 596 37,000  Level FlightAware ADS-B
Tue 09:00:45 AM 35.5090 28.4350 125° Southeast 518 596 37,000  Level FlightAware ADS-B
Tue 09:01:21 AM 35.4580 28.5210 126° Southeast 518 596 37,000  Level FlightAware ADS-B
Tue 09:01:57 AM 35.4090 28.6050 126° Southeast 517 595 37,000  Level FlightAware ADS-B
Tue 09:02:33 AM 35.3590 28.6930 125° Southeast 517 595 37,000  Level FlightAware ADS-B
Tue 09:03:05 AM 35.3140 28.7700 126° Southeast 516 594 37,000  Level FlightAware ADS-B
Tue 09:03:43 AM 35.2620 28.8570 126° Southeast 516 594 37,000  Level FlightAware ADS-B
Tue 09:04:18 AM 35.2200 28.9290 126° Southeast 516 594 37,000  Level FlightAware ADS-B
Tue 09:05:10 AM 35.1540 29.0450 125° Southeast 511 588 37,000  Level FlightAware ADS-B
Tue 09:05:43 AM 35.1010 29.1320 127° Southeast 510 587 37,000  Level FlightAware ADS-B
Tue 09:06:34 AM 35.0300 29.2550 125° Southeast 510 587 37,000  Level FlightAware ADS-B
Tue 09:07:11 AM 34.9760 29.3440 127° Southeast 509 586 37,000  Level FlightAware ADS-B
Tue 09:07:50 AM 34.9310 29.4220 125° Southeast 509 586 37,000  Level FlightAware ADS-B
Tue 09:08:27 AM 34.8670 29.5270 127° Southeast 590 679 37,000  Level FlightAware ADS-B
Tue 09:09:02 AM 34.8180 29.6090 126° Southeast 508 585 37,000  Level FlightAware ADS-B
Tue 09:09:38 AM 34.7700 29.6900 126° Southeast 508 585 37,000  Level FlightAware ADS-B
Tue 09:10:18 AM 34.7110 29.7880 126° Southeast 507 583 37,000  Level FlightAware ADS-B
Tue 09:10:53 AM 34.6630 29.8670 126° Southeast 507 583 37,000  Level FlightAware ADS-B
Tue 09:11:25 AM 34.6310 29.9230 125° Southeast 507 583 37,000  Level FlightAware ADS-B
Tue 09:12:01 AM 34.5800 30.0080 126° Southeast 506 582 37,000  Level FlightAware ADS-B
Tue 09:12:44 AM 34.5190 30.1340 120° Southeast 516 594 37,000  Level FlightAware ADS-B
Tue 09:13:19 AM 34.4770 30.2210 120° Southeast 516 594 37,000  Level FlightAware ADS-B
Tue 09:13:54 AM 34.4350 30.3090 120° Southeast 516 594 37,000  Level FlightAware ADS-B
Tue 09:14:26 AM 34.3970 30.3890 120° Southeast 515 593 37,000  Level FlightAware ADS-B
Tue 09:15:01 AM 34.3560 30.4740 120° Southeast 515 593 37,000  Level FlightAware ADS-B
Tue 09:15:41 AM 34.3090 30.5710 120° Southeast 514 592 37,000  Level FlightAware ADS-B
Tue 09:16:11 AM 34.2720 30.6480 120° Southeast 515 593 37,000  Level FlightAware ADS-B
Tue 09:16:49 AM 34.2250 30.7440 121° Southeast 515 593 37,000  Level FlightAware ADS-B
Tue 09:17:23 AM 34.1850 30.8260 121° Southeast 514 592 37,000  Level FlightAware ADS-B
Tue 09:17:59 AM 34.1400 30.9180 121° Southeast 515 593 37,000  Level FlightAware ADS-B
Tue 09:18:33 AM 34.0990 31.0020 120° Southeast 515 593 37,000  Level FlightAware ADS-B
Tue 09:19:09 AM 34.0570 31.0880 121° Southeast 515 593 37,000  Level FlightAware ADS-B
Tue 09:19:44 AM 34.0150 31.1750 120° Southeast 515 593 37,000  Level FlightAware ADS-B
Tue 09:20:19 AM 33.9720 31.2610 121° Southeast 514 592 37,000  Level FlightAware ADS-B
Tue 09:20:54 AM 33.9280 31.3500 121° Southeast 514 592 37,000  Level FlightAware ADS-B
Tue 09:21:30 AM 33.8850 31.4360 121° Southeast 513 590 37,000  Level FlightAware ADS-B
Tue 09:22:04 AM 33.8420 31.5240 120° Southeast 513 590 37,000  Level FlightAware ADS-B
Tue 09:22:39 AM 33.8020 31.6050 121° Southeast 512 589 37,000  Level FlightAware ADS-B
Tue 09:23:19 AM 33.7510 31.7080 121° Southeast 508 585 37,000  Level FlightAware ADS-B
Tue 09:23:59 AM 33.7030 31.8030 121° Southeast 508 585 37,000  Level FlightAware ADS-B
Tue 09:24:29 AM 33.6660 31.8760 121° Southeast 508 585 37,000  Level FlightAware ADS-B
Tue 09:25:05 AM 33.6220 31.9630 121° Southeast 508 585 37,000  Level FlightAware ADS-B
Tue 09:25:40 AM 33.5800 32.0490 120° Southeast 506 582 37,000  Level FlightAware ADS-B
Tue 09:26:16 AM 33.5410 32.1260 121° Southeast 507 583 37,000  Level FlightAware ADS-B
Tue 09:26:46 AM 33.5010 32.2060 121° Southeast 506 582 37,000  Level FlightAware ADS-B
Tue 09:27:27 AM 33.4480 32.3070 122° Southeast 506 582 37,000  Level FlightAware ADS-B
Tue 09:28:02 AM 33.4050 32.3920 121° Southeast 506 582 37,000 -592 Level FlightAware ADS-B
Tue 09:28:38 AM 33.3620 32.4790 121° Southeast 508 585 36,300 -1,391 Descending FlightAware ADS-B
Tue 09:29:11 AM 33.3220 32.5560 122° Southeast 511 588 35,400 -1,680 Descending FlightAware ADS-B
Tue 09:29:53 AM 33.2710 32.6560 121° Southeast 504 580 34,200 -1,636 Descending FlightAware ADS-B
Tue 09:30:28 AM 33.2340 32.7290 121° Southeast 495 570 33,300 -1,714 Descending FlightAware ADS-B
Tue 09:31:10 AM 33.1810 32.8320 122° Southeast 477 549 32,000 -1,923 Descending FlightAware ADS-B
Tue 09:31:46 AM 33.1400 32.9120 121° Southeast 467 537 30,800 -1,970 Descending FlightAware ADS-B
Tue 09:32:17 AM 33.1070 32.9750 122° Southeast 460 529 29,800 -2,029 Descending FlightAware ADS-B
Tue 09:32:54 AM 33.0640 33.0580 122° Southeast 452 520 28,500 -1,946 Descending FlightAware ADS-B
Tue 09:33:31 AM 33.0280 33.1290 121° Southeast 440 506 27,400 -2,132 Descending FlightAware ADS-B
Tue 09:34:10 AM 32.9800 33.2180 123° Southeast 432 497 25,800 -1,624 Descending FlightAware ADS-B
Tue 09:34:56 AM 32.9370 33.3050 120° Southeast 430 495 25,100 -1,923 Descending FlightAware ADS-B
Tue 09:35:28 AM 32.9020 33.3690 123° Southeast 409 471 23,300 -2,571 Descending FlightAware ADS-B
Tue 09:36:06 AM 32.8620 33.4460 122° Southeast 426 490 22,100 -1,971 Descending FlightAware ADS-B
Tue 09:36:38 AM 32.8270 33.5140 121° Southeast 430 495 21,000 -1,886 Descending FlightAware ADS-B
Tue 09:37:16 AM 32.7900 33.5850 122° Southeast 416 479 19,900 -1,784 Descending FlightAware ADS-B
Tue 09:37:52 AM 32.7520 33.6570 122° Southeast 400 460 18,800 -1,750 Descending FlightAware ADS-B
Tue 09:38:28 AM 32.7190 33.7190 122° Southeast 387 445 17,800 -1,760 Descending FlightAware ADS-B
Tue 09:39:07 AM 32.6790 33.7940 122° Southeast 401 461 16,600 -1,784 Descending FlightAware ADS-B
Tue 09:39:42 AM 32.6460 33.8570 122° Southeast 398 458 15,600 -1,739 Descending FlightAware ADS-B
Tue 09:40:16 AM 32.6120 33.9200 123° Southeast 411 473 14,600 -1,800 Descending FlightAware ADS-B
Tue 09:40:52 AM 32.5760 33.9890 122° Southeast 412 474 13,500 -1,833 Descending FlightAware ADS-B
Tue 09:41:28 AM 32.5380 34.0600 122° Southeast 399 459 12,400 -1,826 Descending FlightAware ADS-B
Tue 09:42:01 AM 32.5070 34.1200 121° Southeast 383 441 11,400 -2,182 Descending FlightAware ADS-B
Tue 09:42:34 AM 32.4720 34.1750 127° Southeast 382 440 10,000 -2,036 Descending FlightAware ADS-B
Tue 09:42:57 AM 32.4450 34.2080 134° Southeast 373 429 9,500 -1,350 Descending FlightAware ADS-B
Tue 09:43:14 AM 32.4250 34.2330 133° Southeast 374 430 9,100 -1,200 Descending FlightAware ADS-B
Tue 09:43:47 AM 32.3880 34.2740 137° Southeast 374 430 8,500 -906 Descending FlightAware ADS-B
Tue 09:44:07 AM 32.3630 34.3030 136° Southeast 368 423 8,300 -1,024 Descending FlightAware ADS-B
Tue 09:44:28 AM 32.3370 34.3350 134° Southeast 353 406 7,800 -1,200 Descending FlightAware ADS-B
Tue 09:44:47 AM 32.3150 34.3610 135° Southeast 342 394 7,500 -955 Descending FlightAware ADS-B
Tue 09:45:12 AM 32.2900 34.3900 136° Southeast 330 380 7,100 -1,067 Descending FlightAware ADS-B
Tue 09:45:32 AM 32.2670 34.4170 135° Southeast 319 367 6,700 -1,059 Descending FlightAware ADS-B
Tue 09:45:46 AM 32.2510 34.4350 136° Southeast 310 357 6,500 -857 Descending FlightAware ADS-B
Tue 09:46:21 AM 32.2200 34.4790 130° Southeast 298 343 6,000 -873 Descending FlightAware ADS-B
Tue 09:46:41 AM 32.2070 34.5050 121° Southeast 287 330 5,700 -982 Descending FlightAware ADS-B
Tue 09:47:16 AM 32.1840 34.5480 122° Southeast 280 322 5,100 -643 Descending FlightAware ADS-B
Tue 09:47:37 AM 32.1690 34.5780 121° Southeast 277 319 5,100  Level FlightAware ADS-B
Tue 09:47:52 AM 32.1590 34.5960 123° Southeast 274 315 5,100  Level FlightAware ADS-B
Tue 09:48:12 AM 32.1460 34.6230 120° Southeast 274 315 5,100  Level FlightAware ADS-B
Tue 09:48:32 AM 32.1310 34.6480 125° Southeast 276 318 5,100  Level FlightAware ADS-B
Tue 09:48:46 AM 32.1210 34.6680 121° Southeast 269 310 5,100  Level FlightAware ADS-B
Tue 09:49:11 AM 32.1050 34.6960 124° Southeast 246 283 5,100  Level FlightAware ADS-B
Tue 09:49:31 AM 32.0920 34.7180 125° Southeast 233 268 5,100  Level FlightAware ADS-B
Tue 09:49:47 AM 32.0850 34.7320 121° Southeast 234 269 5,100  Level FlightAware ADS-B
Tue 09:50:12 AM 32.0700 34.7600 122° Southeast 234 269 5,100  Level FlightAware ADS-B
Tue 09:50:29 AM 32.0580 34.7780 128° Southeast 231 266 5,100 -375 Level FlightAware ADS-B
Tue 09:51:00 AM 32.0340 34.8040 137° Southeast 231 266 4,800 -453 Descending FlightAware ADS-B
Tue 09:51:22 AM 32.0180 34.8230 135° Southeast 225 259 4,700 -409 Descending FlightAware ADS-B
Tue 09:51:44 AM 32.0020 34.8410 136° Southeast 210 242 4,500 -947 Descending FlightAware ADS-B
Tue 09:52:00 AM 31.9910 34.8540 135° Southeast 211 243 4,100 -1,532 Descending FlightAware ADS-B
Tue 09:52:31 AM 31.9730 34.8820 127° Southeast 214 246 3,300 -1,459 Descending FlightAware ADS-B
Tue 09:52:37 AM 31.9730 34.8900 90° East 210 242 3,200 -800 Descending FlightAware ADS-B
Tue 09:53:01 AM 31.9760 34.9100 80° East 192 221 2,900 -960 Descending FlightAware ADS-B
Tue 09:53:27 AM 31.9830 34.9390 74° East 180 207 2,400 -1,143 Descending FlightAware ADS-B
Tue 09:53:43 AM 31.9880 34.9550 70° East 177 204 2,100 -923 Descending FlightAware ADS-B
Tue 09:53:53 AM 31.9930 34.9600 40° Northeast 171 197 2,000 -750 Descending FlightAware ADS-B
Tue 09:53:59 AM 31.9970 34.9630 32° Northeast 169 194 1,900 -1,500 Descending FlightAware ADS-B
Tue 09:54:05 AM 32.0030 34.9640 North 165 190 1,700 -1,091 Descending FlightAware ADS-B
Tue 09:54:32 AM 32.0190 34.9560 337° Northwest 159 183 1,300 -1,000 Descending FlightAware ADS-B
Tue 09:54:47 AM 32.0240 34.9420 293° West 156 180 1,000 -857 Descending FlightAware ADS-B
Tue 09:55:07 AM 32.0230 34.9260 266° West 153 176 800 -652 Descending FlightAware ADS-B
Tue 09:55:33 AM 32.0200 34.9050 260° West 157 181 500 -448 Descending FlightAware ADS-B
Tue 09:56:14 AM 32.0150 34.8750 259° West 157 181 300 -293 Descending FlightAware ADS-B

Login

Don't have an account? Register now (free) for customized features, flight alerts, and more!